<?xml version='1.0' encoding='UTF-8'?><gpx version="1.1" creator="JPX - https://github.com/jenetics/jpx" xmlns="http://www.topografix.com/GPX/1/1"><trk><trkseg><trkpt lat="43.1083732" lon="12.4419314"><ele>243.0</ele><time>2026-04-28T16:38:31.093Z</time></trkpt><trkpt lat="43.1083026" lon="12.441934"><ele>243.0</ele><time>2026-04-28T16:38:34.293Z</time></trkpt><trkpt lat="43.1081641" lon="12.4421612"><ele>243.0</ele><time>2026-04-28T16:38:37.105Z</time></trkpt><trkpt lat="43.1081128" lon="12.44226"><ele>243.0</ele><time>2026-04-28T16:38:38.05Z</time></trkpt><trkpt lat="43.1080533" lon="12.4423545"><ele>241.2</ele><time>2026-04-28T16:38:39.092Z</time></trkpt><trkpt lat="43.1079894" lon="12.4424381"><ele>239.4</ele><time>2026-04-28T16:38:40.041Z</time></trkpt><trkpt lat="43.1079121" lon="12.4425335"><ele>237.59999999999997</ele><time>2026-04-28T16:38:41.076Z</time></trkpt><trkpt lat="43.1078302" lon="12.4426369"><ele>235.79999999999998</ele><time>2026-04-28T16:38:42.063Z</time></trkpt><trkpt lat="43.1077442" lon="12.4427614"><ele>234.0</ele><time>2026-04-28T16:38:43.055Z</time></trkpt><trkpt lat="43.1076594" lon="12.4428904"><ele>230.25</ele><time>2026-04-28T16:38:44.068Z</time></trkpt><trkpt lat="43.1075797" lon="12.4430221"><ele>226.5</ele><time>2026-04-28T16:38:45.043Z</time></trkpt><trkpt lat="43.1075181" lon="12.4431735"><ele>222.75</ele><time>2026-04-28T16:38:46.061Z</time></trkpt><trkpt lat="43.1074958" lon="12.4433568"><ele>219.0</ele><time>2026-04-28T16:38:47.065Z</time></trkpt><trkpt lat="43.1075035" lon="12.4435385"><ele>219.0</ele><time>2026-04-28T16:38:48.073Z</time></trkpt><trkpt lat="43.1075214" lon="12.443712"><ele>218.99999999999997</ele><time>2026-04-28T16:38:49.101Z</time></trkpt><trkpt lat="43.1075376" lon="12.4438571"><ele>218.99999999999997</ele><time>2026-04-28T16:38:50.092Z</time></trkpt><trkpt lat="43.1075522" lon="12.4439825"><ele>219.0</ele><time>2026-04-28T16:38:51.058Z</time></trkpt><trkpt lat="43.107564" lon="12.4440969"><ele>219.0</ele><time>2026-04-28T16:38:52.064Z</time></trkpt><trkpt lat="43.1075712" lon="12.4441831"><ele>217.2857142857143</ele><time>2026-04-28T16:38:53.041Z</time></trkpt><trkpt lat="43.1075862" lon="12.4442824"><ele>215.57142857142856</ele><time>2026-04-28T16:38:55.07Z</time></trkpt><trkpt lat="43.1076132" lon="12.444366"><ele>213.85714285714286</ele><time>2026-04-28T16:39:01.042Z</time></trkpt><trkpt lat="43.1076776" lon="12.444347"><ele>212.14285714285717</ele><time>2026-04-28T16:39:05.085Z</time></trkpt><trkpt lat="43.1077185" lon="12.44426"><ele>210.42857142857144</ele><time>2026-04-28T16:39:07.069Z</time></trkpt><trkpt lat="43.1077662" lon="12.4441818"><ele>208.71428571428572</ele><time>2026-04-28T16:39:10.05Z</time></trkpt><trkpt lat="43.1078409" lon="12.4441446"><ele>207.0</ele><time>2026-04-28T16:39:13.047Z</time></trkpt><trkpt lat="43.1078858" lon="12.4440757"><ele>207.0</ele><time>2026-04-28T16:39:15.079Z</time></trkpt><trkpt lat="43.1079375" lon="12.4440045"><ele>207.0</ele><time>2026-04-28T16:39:17.078Z</time></trkpt><trkpt lat="43.1079902" lon="12.4439303"><ele>207.0</ele><time>2026-04-28T16:39:19.11Z</time></trkpt><trkpt lat="43.1080466" lon="12.4438462"><ele>207.0</ele><time>2026-04-28T16:39:21.104Z</time></trkpt><trkpt lat="43.1081045" lon="12.4437648"><ele>207.0</ele><time>2026-04-28T16:39:23.077Z</time></trkpt><trkpt lat="43.1081598" lon="12.4436812"><ele>207.0</ele><time>2026-04-28T16:39:25.098Z</time></trkpt><trkpt lat="43.1082239" lon="12.4436005"><ele>206.66666666666666</ele><time>2026-04-28T16:39:27.181Z</time></trkpt><trkpt lat="43.1082806" lon="12.4435191"><ele>206.33333333333331</ele><time>2026-04-28T16:39:29.114Z</time></trkpt><trkpt lat="43.1083374" lon="12.4434248"><ele>206.0</ele><time>2026-04-28T16:39:31.176Z</time></trkpt><trkpt lat="43.1083867" lon="12.4433398"><ele>205.66666666666666</ele><time>2026-04-28T16:39:33.068Z</time></trkpt><trkpt lat="43.1084407" lon="12.443248"><ele>205.33333333333331</ele><time>2026-04-28T16:39:35.069Z</time></trkpt><trkpt lat="43.1085064" lon="12.4431498"><ele>205.0</ele><time>2026-04-28T16:39:37.195Z</time></trkpt><trkpt lat="43.1085793" lon="12.4430784"><ele>205.0</ele><time>2026-04-28T16:39:39.991Z</time></trkpt><trkpt lat="43.1086183" lon="12.4429701"><ele>205.0</ele><time>2026-04-28T16:39:41.074Z</time></trkpt><trkpt lat="43.1086809" lon="12.4428572"><ele>205.0</ele><time>2026-04-28T16:39:43.083Z</time></trkpt><trkpt lat="43.1087357" lon="12.4427483"><ele>205.0</ele><time>2026-04-28T16:39:45.06Z</time></trkpt><trkpt lat="43.1087893" lon="12.4426398"><ele>205.0</ele><time>2026-04-28T16:39:47.036Z</time></trkpt><trkpt lat="43.108851" lon="12.4425413"><ele>208.4</ele><time>2026-04-28T16:39:49.104Z</time></trkpt><trkpt lat="43.1089024" lon="12.4424468"><ele>211.8</ele><time>2026-04-28T16:39:51.076Z</time></trkpt><trkpt lat="43.1089588" lon="12.4423466"><ele>215.2</ele><time>2026-04-28T16:39:53.058Z</time></trkpt><trkpt lat="43.1090081" lon="12.442236"><ele>218.6</ele><time>2026-04-28T16:39:55.105Z</time></trkpt><trkpt lat="43.1090672" lon="12.442138"><ele>222.0</ele><time>2026-04-28T16:39:57.075Z</time></trkpt><trkpt lat="43.1091307" lon="12.4420374"><ele>222.0</ele><time>2026-04-28T16:39:59.09Z</time></trkpt><trkpt lat="43.1091888" lon="12.441946"><ele>222.0</ele><time>2026-04-28T16:40:01.054Z</time></trkpt><trkpt lat="43.1092428" lon="12.4418776"><ele>222.0</ele><time>2026-04-28T16:40:03.064Z</time></trkpt><trkpt lat="43.1093022" lon="12.4417578"><ele>222.0</ele><time>2026-04-28T16:40:05.085Z</time></trkpt><trkpt lat="43.1093611" lon="12.4416496"><ele>222.0</ele><time>2026-04-28T16:40:07.081Z</time></trkpt><trkpt lat="43.1094246" lon="12.4415494"><ele>222.0</ele><time>2026-04-28T16:40:09.091Z</time></trkpt><trkpt lat="43.1095051" lon="12.4414721"><ele>222.0</ele><time>2026-04-28T16:40:11.064Z</time></trkpt><trkpt lat="43.1095853" lon="12.4413888"><ele>222.0</ele><time>2026-04-28T16:40:13.047Z</time></trkpt><trkpt lat="43.1096638" lon="12.441297"><ele>222.0</ele><time>2026-04-28T16:40:15.079Z</time></trkpt><trkpt lat="43.1097445" lon="12.4412046"><ele>222.0</ele><time>2026-04-28T16:40:17.065Z</time></trkpt><trkpt lat="43.1098221" lon="12.4411217"><ele>224.2</ele><time>2026-04-28T16:40:19.082Z</time></trkpt><trkpt lat="43.1099019" lon="12.4410361"><ele>226.39999999999998</ele><time>2026-04-28T16:40:21.075Z</time></trkpt><trkpt lat="43.1099825" lon="12.4409331"><ele>228.60000000000002</ele><time>2026-04-28T16:40:23.089Z</time></trkpt><trkpt lat="43.1100679" lon="12.440842"><ele>230.8</ele><time>2026-04-28T16:40:25.069Z</time></trkpt><trkpt lat="43.1101602" lon="12.4407619"><ele>233.0</ele><time>2026-04-28T16:40:27.063Z</time></trkpt><trkpt lat="43.1102523" lon="12.4406816"><ele>229.0</ele><time>2026-04-28T16:40:29.063Z</time></trkpt><trkpt lat="43.1103454" lon="12.4405906"><ele>225.0</ele><time>2026-04-28T16:40:31.063Z</time></trkpt><trkpt lat="43.1104406" lon="12.4405191"><ele>221.0</ele><time>2026-04-28T16:40:33.092Z</time></trkpt><trkpt lat="43.110533" lon="12.4404511"><ele>217.0</ele><time>2026-04-28T16:40:35.105Z</time></trkpt><trkpt lat="43.1106238" lon="12.440379"><ele>213.0</ele><time>2026-04-28T16:40:37.095Z</time></trkpt><trkpt lat="43.1106975" lon="12.4402822"><ele>211.8</ele><time>2026-04-28T16:40:39.092Z</time></trkpt><trkpt lat="43.1107874" lon="12.4402272"><ele>210.60000000000002</ele><time>2026-04-28T16:40:41.088Z</time></trkpt><trkpt lat="43.1108874" lon="12.4402342"><ele>209.39999999999998</ele><time>2026-04-28T16:40:43.081Z</time></trkpt><trkpt lat="43.1109819" lon="12.4402823"><ele>208.2</ele><time>2026-04-28T16:40:45.098Z</time></trkpt><trkpt lat="43.1110869" lon="12.4403338"><ele>207.0</ele><time>2026-04-28T16:40:47.08Z</time></trkpt><trkpt lat="43.1112125" lon="12.440358"><ele>207.0</ele><time>2026-04-28T16:40:49.097Z</time></trkpt><trkpt lat="43.1112754" lon="12.4403466"><ele>207.0</ele><time>2026-04-28T16:40:50.078Z</time></trkpt><trkpt lat="43.1113363" lon="12.4403184"><ele>207.0</ele><time>2026-04-28T16:40:51.073Z</time></trkpt><trkpt lat="43.1114033" lon="12.4402907"><ele>207.0</ele><time>2026-04-28T16:40:52.173Z</time></trkpt><trkpt lat="43.1115115" lon="12.4402394"><ele>207.0</ele><time>2026-04-28T16:40:54.071Z</time></trkpt><trkpt lat="43.111618" lon="12.4401859"><ele>207.0</ele><time>2026-04-28T16:40:56.091Z</time></trkpt><trkpt lat="43.1117198" lon="12.4401335"><ele>207.2</ele><time>2026-04-28T16:40:58.092Z</time></trkpt><trkpt lat="43.111816" lon="12.4400828"><ele>207.39999999999998</ele><time>2026-04-28T16:41:00.091Z</time></trkpt><trkpt lat="43.1119054" lon="12.4400327"><ele>207.60000000000002</ele><time>2026-04-28T16:41:02.072Z</time></trkpt><trkpt lat="43.111993" lon="12.4399942"><ele>207.8</ele><time>2026-04-28T16:41:04.095Z</time></trkpt><trkpt lat="43.1120872" lon="12.439955"><ele>208.0</ele><time>2026-04-28T16:41:06.068Z</time></trkpt><trkpt lat="43.1121899" lon="12.4399148"><ele>208.0</ele><time>2026-04-28T16:41:08.069Z</time></trkpt><trkpt lat="43.1122905" lon="12.4398572"><ele>208.0</ele><time>2026-04-28T16:41:10.059Z</time></trkpt><trkpt lat="43.1123829" lon="12.4398084"><ele>208.0</ele><time>2026-04-28T16:41:12.051Z</time></trkpt><trkpt lat="43.1124836" lon="12.4397607"><ele>208.0</ele><time>2026-04-28T16:41:14.06Z</time></trkpt><trkpt lat="43.1125824" lon="12.4396965"><ele>208.0</ele><time>2026-04-28T16:41:16.051Z</time></trkpt><trkpt lat="43.1126863" lon="12.4396443"><ele>209.75</ele><time>2026-04-28T16:41:18.077Z</time></trkpt><trkpt lat="43.1127928" lon="12.4396018"><ele>211.5</ele><time>2026-04-28T16:41:20.08Z</time></trkpt><trkpt lat="43.1129057" lon="12.439555"><ele>213.25</ele><time>2026-04-28T16:41:22.116Z</time></trkpt><trkpt lat="43.1130188" lon="12.4394968"><ele>215.0</ele><time>2026-04-28T16:41:24.093Z</time></trkpt><trkpt lat="43.1131369" lon="12.4394506"><ele>215.00000000000003</ele><time>2026-04-28T16:41:26.059Z</time></trkpt><trkpt lat="43.1132015" lon="12.4394258"><ele>215.0</ele><time>2026-04-28T16:41:27.071Z</time></trkpt><trkpt lat="43.1132691" lon="12.4393902"><ele>215.0</ele><time>2026-04-28T16:41:28.177Z</time></trkpt><trkpt lat="43.113387" lon="12.4393259"><ele>215.0</ele><time>2026-04-28T16:41:30.083Z</time></trkpt><trkpt lat="43.1134508" lon="12.4392917"><ele>215.00000000000003</ele><time>2026-04-28T16:41:31.067Z</time></trkpt><trkpt lat="43.1135181" lon="12.4392547"><ele>215.0</ele><time>2026-04-28T16:41:32.109Z</time></trkpt><trkpt lat="43.1135811" lon="12.4392173"><ele>212.66666666666669</ele><time>2026-04-28T16:41:33.081Z</time></trkpt><trkpt lat="43.1136453" lon="12.4391724"><ele>210.33333333333334</ele><time>2026-04-28T16:41:34.086Z</time></trkpt><trkpt lat="43.1137079" lon="12.4391361"><ele>208.0</ele><time>2026-04-28T16:41:35.069Z</time></trkpt><trkpt lat="43.1137799" lon="12.4390997"><ele>205.66666666666669</ele><time>2026-04-28T16:41:36.194Z</time></trkpt><trkpt lat="43.1139" lon="12.439037"><ele>203.33333333333334</ele><time>2026-04-28T16:41:38.063Z</time></trkpt><trkpt lat="43.1139665" lon="12.4390034"><ele>201.0</ele><time>2026-04-28T16:41:39.095Z</time></trkpt><trkpt lat="43.1140298" lon="12.4389814"><ele>200.5</ele><time>2026-04-28T16:41:40.081Z</time></trkpt><trkpt lat="43.1141431" lon="12.4389225"><ele>200.0</ele><time>2026-04-28T16:41:42.074Z</time></trkpt><trkpt lat="43.1142513" lon="12.4388456"><ele>199.5</ele><time>2026-04-28T16:41:44.094Z</time></trkpt><trkpt lat="43.1143486" lon="12.4387586"><ele>199.0</ele><time>2026-04-28T16:41:46.063Z</time></trkpt><trkpt lat="43.1144347" lon="12.4386728"><ele>199.0</ele><time>2026-04-28T16:41:48.075Z</time></trkpt><trkpt lat="43.1145219" lon="12.4385848"><ele>199.0</ele><time>2026-04-28T16:41:50.074Z</time></trkpt><trkpt lat="43.1146157" lon="12.4384996"><ele>199.0</ele><time>2026-04-28T16:41:52.08Z</time></trkpt><trkpt lat="43.1146982" lon="12.4384002"><ele>199.0</ele><time>2026-04-28T16:41:54.1Z</time></trkpt><trkpt lat="43.1147912" lon="12.4383195"><ele>199.0</ele><time>2026-04-28T16:41:56.087Z</time></trkpt><trkpt lat="43.114876" lon="12.4382365"><ele>199.0</ele><time>2026-04-28T16:41:58.096Z</time></trkpt><trkpt lat="43.1149621" lon="12.4381557"><ele>199.0</ele><time>2026-04-28T16:42:00.098Z</time></trkpt><trkpt lat="43.1150443" lon="12.4380641"><ele>199.0</ele><time>2026-04-28T16:42:02.101Z</time></trkpt><trkpt lat="43.1151185" lon="12.4379607"><ele>199.0</ele><time>2026-04-28T16:42:04.103Z</time></trkpt><trkpt lat="43.115182" lon="12.4378476"><ele>199.0</ele><time>2026-04-28T16:42:06.078Z</time></trkpt><trkpt lat="43.1152294" lon="12.437725"><ele>199.0</ele><time>2026-04-28T16:42:08.094Z</time></trkpt><trkpt lat="43.1152873" lon="12.4376128"><ele>199.0</ele><time>2026-04-28T16:42:10.095Z</time></trkpt><trkpt lat="43.1153333" lon="12.4374932"><ele>199.0</ele><time>2026-04-28T16:42:12.073Z</time></trkpt><trkpt lat="43.1153814" lon="12.4373592"><ele>199.0</ele><time>2026-04-28T16:42:14.106Z</time></trkpt><trkpt lat="43.1154175" lon="12.4372045"><ele>199.0</ele><time>2026-04-28T16:42:16.064Z</time></trkpt><trkpt lat="43.115444" lon="12.4370419"><ele>199.2</ele><time>2026-04-28T16:42:18.074Z</time></trkpt><trkpt lat="43.1154463" lon="12.4369556"><ele>199.39999999999998</ele><time>2026-04-28T16:42:19.101Z</time></trkpt><trkpt lat="43.1154199" lon="12.4368001"><ele>199.6</ele><time>2026-04-28T16:42:21.078Z</time></trkpt><trkpt lat="43.1153739" lon="12.4366518"><ele>199.8</ele><time>2026-04-28T16:42:23.091Z</time></trkpt><trkpt lat="43.1153252" lon="12.4365188"><ele>200.0</ele><time>2026-04-28T16:42:25.096Z</time></trkpt><trkpt lat="43.115279" lon="12.436361"><ele>200.4</ele><time>2026-04-28T16:42:27.222Z</time></trkpt><trkpt lat="43.1152518" lon="12.4362289"><ele>200.8</ele><time>2026-04-28T16:42:29.103Z</time></trkpt><trkpt lat="43.1152209" lon="12.4361065"><ele>201.2</ele><time>2026-04-28T16:42:31.084Z</time></trkpt><trkpt lat="43.1151935" lon="12.4359878"><ele>201.6</ele><time>2026-04-28T16:42:33.077Z</time></trkpt><trkpt lat="43.1151638" lon="12.4358797"><ele>202.0</ele><time>2026-04-28T16:42:35.085Z</time></trkpt><trkpt lat="43.1151137" lon="12.4357724"><ele>201.99999999999997</ele><time>2026-04-28T16:42:40.116Z</time></trkpt><trkpt lat="43.1150859" lon="12.4356417"><ele>202.0</ele><time>2026-04-28T16:42:42.097Z</time></trkpt><trkpt lat="43.1150557" lon="12.4355397"><ele>202.0</ele><time>2026-04-28T16:42:44.128Z</time></trkpt><trkpt lat="43.1150344" lon="12.4354497"><ele>202.0</ele><time>2026-04-28T16:42:46.128Z</time></trkpt><trkpt lat="43.1150106" lon="12.4353367"><ele>201.99999999999997</ele><time>2026-04-28T16:42:49.142Z</time></trkpt><trkpt lat="43.1149956" lon="12.4352152"><ele>202.0</ele><time>2026-04-28T16:42:52.1Z</time></trkpt><trkpt lat="43.1149669" lon="12.4350942"><ele>202.99999999999997</ele><time>2026-04-28T16:42:55.145Z</time></trkpt><trkpt lat="43.1149458" lon="12.4349709"><ele>204.0</ele><time>2026-04-28T16:42:58.236Z</time></trkpt><trkpt lat="43.1149288" lon="12.434861"><ele>205.0</ele><time>2026-04-28T16:43:01.088Z</time></trkpt><trkpt lat="43.1149189" lon="12.4347415"><ele>206.0</ele><time>2026-04-28T16:43:04.125Z</time></trkpt><trkpt lat="43.1149" lon="12.4346284"><ele>206.99999999999997</ele><time>2026-04-28T16:43:07.123Z</time></trkpt><trkpt lat="43.114884" lon="12.4345134"><ele>208.0</ele><time>2026-04-28T16:43:10.124Z</time></trkpt><trkpt lat="43.1148761" lon="12.4344094"><ele>208.83333333333331</ele><time>2026-04-28T16:43:13.102Z</time></trkpt><trkpt lat="43.1148575" lon="12.4343008"><ele>209.66666666666666</ele><time>2026-04-28T16:43:16.108Z</time></trkpt><trkpt lat="43.1148494" lon="12.4341768"><ele>210.5</ele><time>2026-04-28T16:43:19.097Z</time></trkpt><trkpt lat="43.1148369" lon="12.4340516"><ele>211.33333333333331</ele><time>2026-04-28T16:43:22.129Z</time></trkpt><trkpt lat="43.1148249" lon="12.4339336"><ele>212.16666666666666</ele><time>2026-04-28T16:43:25.108Z</time></trkpt><trkpt lat="43.1148154" lon="12.4338074"><ele>213.0</ele><time>2026-04-28T16:43:28.099Z</time></trkpt><trkpt lat="43.1148021" lon="12.4336813"><ele>213.0</ele><time>2026-04-28T16:43:31.077Z</time></trkpt><trkpt lat="43.1147924" lon="12.433557"><ele>213.0</ele><time>2026-04-28T16:43:34.136Z</time></trkpt><trkpt lat="43.1147794" lon="12.4334478"><ele>213.0</ele><time>2026-04-28T16:43:37.135Z</time></trkpt><trkpt lat="43.1147679" lon="12.4333388"><ele>213.0</ele><time>2026-04-28T16:43:40.096Z</time></trkpt><trkpt lat="43.1147579" lon="12.4332285"><ele>213.0</ele><time>2026-04-28T16:43:43.13Z</time></trkpt><trkpt lat="43.1147477" lon="12.4331214"><ele>213.0</ele><time>2026-04-28T16:43:46.089Z</time></trkpt><trkpt lat="43.1147357" lon="12.4330092"><ele>213.83333333333334</ele><time>2026-04-28T16:43:49.076Z</time></trkpt><trkpt lat="43.1147267" lon="12.4328979"><ele>214.66666666666669</ele><time>2026-04-28T16:43:52.085Z</time></trkpt><trkpt lat="43.1147224" lon="12.4327909"><ele>215.5</ele><time>2026-04-28T16:43:55.077Z</time></trkpt><trkpt lat="43.1147153" lon="12.4326781"><ele>216.33333333333334</ele><time>2026-04-28T16:43:58.201Z</time></trkpt><trkpt lat="43.1147084" lon="12.4325822"><ele>217.16666666666669</ele><time>2026-04-28T16:44:01.119Z</time></trkpt><trkpt lat="43.1146977" lon="12.4324708"><ele>218.0</ele><time>2026-04-28T16:44:04.096Z</time></trkpt><trkpt lat="43.1146828" lon="12.4323691"><ele>218.0</ele><time>2026-04-28T16:44:07.101Z</time></trkpt><trkpt lat="43.1146718" lon="12.4322582"><ele>218.0</ele><time>2026-04-28T16:44:10.083Z</time></trkpt><trkpt lat="43.1146583" lon="12.432159"><ele>218.0</ele><time>2026-04-28T16:44:13.126Z</time></trkpt><trkpt lat="43.114654" lon="12.4320561"><ele>218.0</ele><time>2026-04-28T16:44:17.115Z</time></trkpt><trkpt lat="43.1146325" lon="12.4319612"><ele>218.0</ele><time>2026-04-28T16:44:20.138Z</time></trkpt><trkpt lat="43.1146206" lon="12.4318736"><ele>218.0</ele><time>2026-04-28T16:44:23.123Z</time></trkpt><trkpt lat="43.1146078" lon="12.4317796"><ele>218.0</ele><time>2026-04-28T16:44:26.115Z</time></trkpt><trkpt lat="43.1145944" lon="12.431688"><ele>219.0</ele><time>2026-04-28T16:44:29.111Z</time></trkpt><trkpt lat="43.1145835" lon="12.4315903"><ele>220.0</ele><time>2026-04-28T16:44:32.139Z</time></trkpt><trkpt lat="43.114571" lon="12.4314757"><ele>221.0</ele><time>2026-04-28T16:44:36.127Z</time></trkpt><trkpt lat="43.1145573" lon="12.4313776"><ele>222.0</ele><time>2026-04-28T16:44:39.123Z</time></trkpt><trkpt lat="43.1145628" lon="12.4312779"><ele>223.0</ele><time>2026-04-28T16:44:42.16Z</time></trkpt><trkpt lat="43.114555" lon="12.4311782"><ele>224.00000000000003</ele><time>2026-04-28T16:44:45.112Z</time></trkpt><trkpt lat="43.1145417" lon="12.4310819"><ele>225.00000000000003</ele><time>2026-04-28T16:44:48.112Z</time></trkpt><trkpt lat="43.1145398" lon="12.4309843"><ele>225.71428571428575</ele><time>2026-04-28T16:44:51.119Z</time></trkpt><trkpt lat="43.1145589" lon="12.4308782"><ele>226.42857142857144</ele><time>2026-04-28T16:44:55.042Z</time></trkpt><trkpt lat="43.114594" lon="12.430793"><ele>227.14285714285714</ele><time>2026-04-28T16:44:58.121Z</time></trkpt><trkpt lat="43.1146739" lon="12.4307639"><ele>227.85714285714286</ele><time>2026-04-28T16:45:01.637Z</time></trkpt><trkpt lat="43.1147304" lon="12.4308071"><ele>228.57142857142856</ele><time>2026-04-28T16:45:06.142Z</time></trkpt><trkpt lat="43.1147813" lon="12.4308802"><ele>229.28571428571425</ele><time>2026-04-28T16:45:10.642Z</time></trkpt><trkpt lat="43.1148123" lon="12.4309626"><ele>229.99999999999997</ele><time>2026-04-28T16:45:14.141Z</time></trkpt><trkpt lat="43.1148392" lon="12.4310451"><ele>230.00000000000003</ele><time>2026-04-28T16:45:17.132Z</time></trkpt><trkpt lat="43.1148673" lon="12.4311317"><ele>230.0</ele><time>2026-04-28T16:45:21.26Z</time></trkpt><trkpt lat="43.1148971" lon="12.4312326"><ele>230.0</ele><time>2026-04-28T16:45:25.858Z</time></trkpt><trkpt lat="43.1149294" lon="12.431319"><ele>230.0</ele><time>2026-04-28T16:45:29.111Z</time></trkpt><trkpt lat="43.1149617" lon="12.4314314"><ele>230.00000000000003</ele><time>2026-04-28T16:45:33.126Z</time></trkpt><trkpt lat="43.1149856" lon="12.4315308"><ele>230.0</ele><time>2026-04-28T16:45:37.08Z</time></trkpt><trkpt lat="43.115019" lon="12.4316282"><ele>229.71428571428567</ele><time>2026-04-28T16:45:41.599Z</time></trkpt><trkpt lat="43.1150459" lon="12.4317077"><ele>229.42857142857142</ele><time>2026-04-28T16:45:45.11Z</time></trkpt><trkpt lat="43.1150777" lon="12.4318048"><ele>229.1428571428571</ele><time>2026-04-28T16:45:49.103Z</time></trkpt><trkpt lat="43.1151163" lon="12.4319122"><ele>228.85714285714283</ele><time>2026-04-28T16:45:53.112Z</time></trkpt><trkpt lat="43.1151509" lon="12.4319886"><ele>228.57142857142856</ele><time>2026-04-28T16:45:57.061Z</time></trkpt><trkpt lat="43.1151853" lon="12.4320619"><ele>228.28571428571428</ele><time>2026-04-28T16:46:00.176Z</time></trkpt><trkpt lat="43.1152207" lon="12.4321341"><ele>228.0</ele><time>2026-04-28T16:46:03.144Z</time></trkpt><trkpt lat="43.1152566" lon="12.4322101"><ele>226.83333333333334</ele><time>2026-04-28T16:46:06.126Z</time></trkpt><trkpt lat="43.1152978" lon="12.4322982"><ele>225.66666666666669</ele><time>2026-04-28T16:46:10.241Z</time></trkpt><trkpt lat="43.1153402" lon="12.4323778"><ele>224.5</ele><time>2026-04-28T16:46:14.042Z</time></trkpt><trkpt lat="43.1153865" lon="12.4324661"><ele>223.33333333333334</ele><time>2026-04-28T16:46:18.139Z</time></trkpt><trkpt lat="43.1154204" lon="12.4325586"><ele>222.16666666666669</ele><time>2026-04-28T16:46:22.157Z</time></trkpt><trkpt lat="43.1154633" lon="12.4326535"><ele>221.0</ele><time>2026-04-28T16:46:26.156Z</time></trkpt><trkpt lat="43.1155096" lon="12.4327446"><ele>221.00000000000003</ele><time>2026-04-28T16:46:30.213Z</time></trkpt><trkpt lat="43.1155564" lon="12.4328225"><ele>221.0</ele><time>2026-04-28T16:46:34.145Z</time></trkpt><trkpt lat="43.1156041" lon="12.4328995"><ele>221.0</ele><time>2026-04-28T16:46:37.14Z</time></trkpt><trkpt lat="43.115647" lon="12.4329869"><ele>221.0</ele><time>2026-04-28T16:46:40.17Z</time></trkpt><trkpt lat="43.1156953" lon="12.4330614"><ele>221.0</ele><time>2026-04-28T16:46:44.151Z</time></trkpt><trkpt lat="43.1157387" lon="12.4331392"><ele>221.00000000000003</ele><time>2026-04-28T16:46:47.183Z</time></trkpt><trkpt lat="43.115783" lon="12.4332093"><ele>221.0</ele><time>2026-04-28T16:46:51.157Z</time></trkpt><trkpt lat="43.1158302" lon="12.433273"><ele>223.0</ele><time>2026-04-28T16:46:55.162Z</time></trkpt><trkpt lat="43.1158787" lon="12.4333475"><ele>225.0</ele><time>2026-04-28T16:46:59.151Z</time></trkpt><trkpt lat="43.1159209" lon="12.4334197"><ele>227.0</ele><time>2026-04-28T16:47:02.16Z</time></trkpt><trkpt lat="43.1159644" lon="12.4334984"><ele>229.0</ele><time>2026-04-28T16:47:06.149Z</time></trkpt><trkpt lat="43.1159979" lon="12.4335717"><ele>230.99999999999997</ele><time>2026-04-28T16:47:09.174Z</time></trkpt><trkpt lat="43.1160429" lon="12.4336437"><ele>233.0</ele><time>2026-04-28T16:47:13.164Z</time></trkpt><trkpt lat="43.1161033" lon="12.4337074"><ele>235.0</ele><time>2026-04-28T16:47:17.157Z</time></trkpt><trkpt lat="43.1161425" lon="12.4337756"><ele>235.0</ele><time>2026-04-28T16:47:20.175Z</time></trkpt><trkpt lat="43.1162153" lon="12.4337983"><ele>234.99999999999997</ele><time>2026-04-28T16:47:24.113Z</time></trkpt><trkpt lat="43.1162791" lon="12.4337891"><ele>235.0</ele><time>2026-04-28T16:47:27.146Z</time></trkpt><trkpt lat="43.1163452" lon="12.433797"><ele>235.0</ele><time>2026-04-28T16:47:30.545Z</time></trkpt><trkpt lat="43.1164186" lon="12.4337964"><ele>234.99999999999997</ele><time>2026-04-28T16:47:34.103Z</time></trkpt><trkpt lat="43.11649" lon="12.4337507"><ele>235.0</ele><time>2026-04-28T16:47:38.147Z</time></trkpt><trkpt lat="43.1165385" lon="12.4336864"><ele>235.0</ele><time>2026-04-28T16:47:41.151Z</time></trkpt><trkpt lat="43.1165835" lon="12.4335908"><ele>235.83333333333331</ele><time>2026-04-28T16:47:45.137Z</time></trkpt><trkpt lat="43.1166278" lon="12.4335236"><ele>236.66666666666666</ele><time>2026-04-28T16:47:48.165Z</time></trkpt><trkpt lat="43.1166884" lon="12.4334452"><ele>237.5</ele><time>2026-04-28T16:47:52.121Z</time></trkpt><trkpt lat="43.1167408" lon="12.4333717"><ele>238.33333333333331</ele><time>2026-04-28T16:47:56.145Z</time></trkpt><trkpt lat="43.116808" lon="12.4333173"><ele>239.16666666666666</ele><time>2026-04-28T16:48:00.183Z</time></trkpt><trkpt lat="43.1168555" lon="12.4332331"><ele>240.0</ele><time>2026-04-28T16:48:04.136Z</time></trkpt><trkpt lat="43.1169131" lon="12.4331572"><ele>240.0</ele><time>2026-04-28T16:48:08.134Z</time></trkpt><trkpt lat="43.1169727" lon="12.4330685"><ele>240.0</ele><time>2026-04-28T16:48:12.258Z</time></trkpt><trkpt lat="43.1170186" lon="12.4329855"><ele>240.0</ele><time>2026-04-28T16:48:16.152Z</time></trkpt><trkpt lat="43.1170625" lon="12.4328959"><ele>240.0</ele><time>2026-04-28T16:48:20.102Z</time></trkpt><trkpt lat="43.1170969" lon="12.4328226"><ele>240.0</ele><time>2026-04-28T16:48:23.148Z</time></trkpt><trkpt lat="43.1171394" lon="12.4327587"><ele>240.0</ele><time>2026-04-28T16:48:26.144Z</time></trkpt><trkpt lat="43.1171918" lon="12.4326635"><ele>240.5</ele><time>2026-04-28T16:48:30.244Z</time></trkpt><trkpt lat="43.1172482" lon="12.4325972"><ele>241.0</ele><time>2026-04-28T16:48:34.121Z</time></trkpt><trkpt lat="43.1172992" lon="12.4325166"><ele>241.5</ele><time>2026-04-28T16:48:38.209Z</time></trkpt><trkpt lat="43.1173441" lon="12.4324493"><ele>242.0</ele><time>2026-04-28T16:48:42.087Z</time></trkpt><trkpt lat="43.1173988" lon="12.4323603"><ele>242.5</ele><time>2026-04-28T16:48:46.174Z</time></trkpt><trkpt lat="43.117444" lon="12.4322789"><ele>243.0</ele><time>2026-04-28T16:48:50.133Z</time></trkpt><trkpt lat="43.1174921" lon="12.4321929"><ele>245.42857142857142</ele><time>2026-04-28T16:48:54.152Z</time></trkpt><trkpt lat="43.1175346" lon="12.4321284"><ele>247.8571428571429</ele><time>2026-04-28T16:48:58.189Z</time></trkpt><trkpt lat="43.1175973" lon="12.4320491"><ele>250.2857142857143</ele><time>2026-04-28T16:49:02.113Z</time></trkpt><trkpt lat="43.1176557" lon="12.4319842"><ele>252.71428571428572</ele><time>2026-04-28T16:49:05.192Z</time></trkpt><trkpt lat="43.1176962" lon="12.4319156"><ele>255.14285714285717</ele><time>2026-04-28T16:49:08.164Z</time></trkpt><trkpt lat="43.1177501" lon="12.4318508"><ele>257.5714285714286</ele><time>2026-04-28T16:49:12.179Z</time></trkpt><trkpt lat="43.1178072" lon="12.4317847"><ele>260.0</ele><time>2026-04-28T16:49:16.135Z</time></trkpt><trkpt lat="43.117877" lon="12.431731"><ele>260.00000000000006</ele><time>2026-04-28T16:49:20.17Z</time></trkpt><trkpt lat="43.1179384" lon="12.4316852"><ele>260.0</ele><time>2026-04-28T16:49:24.125Z</time></trkpt><trkpt lat="43.1179958" lon="12.431643"><ele>260.0</ele><time>2026-04-28T16:49:27.058Z</time></trkpt><trkpt lat="43.1180517" lon="12.4315886"><ele>260.0</ele><time>2026-04-28T16:49:30.274Z</time></trkpt><trkpt lat="43.118115" lon="12.4315219"><ele>260.0</ele><time>2026-04-28T16:49:34.121Z</time></trkpt><trkpt lat="43.118166" lon="12.4314708"><ele>260.00000000000006</ele><time>2026-04-28T16:49:37.126Z</time></trkpt><trkpt lat="43.1182218" lon="12.431422"><ele>260.0</ele><time>2026-04-28T16:49:40.379Z</time></trkpt><trkpt lat="43.1182813" lon="12.4313662"><ele>261.0</ele><time>2026-04-28T16:49:44.119Z</time></trkpt><trkpt lat="43.1183462" lon="12.4313126"><ele>262.0</ele><time>2026-04-28T16:49:47.761Z</time></trkpt><trkpt lat="43.1184038" lon="12.4312481"><ele>263.0</ele><time>2026-04-28T16:49:52.201Z</time></trkpt><trkpt lat="43.118477" lon="12.4311977"><ele>264.0</ele><time>2026-04-28T16:49:56.198Z</time></trkpt><trkpt lat="43.1185279" lon="12.4311406"><ele>265.0</ele><time>2026-04-28T16:49:59.16Z</time></trkpt><trkpt lat="43.1185974" lon="12.4310972"><ele>266.0</ele><time>2026-04-28T16:50:03.145Z</time></trkpt><trkpt lat="43.1186714" lon="12.4310336"><ele>266.0</ele><time>2026-04-28T16:50:06.898Z</time></trkpt><trkpt lat="43.118741" lon="12.4310128"><ele>266.0</ele><time>2026-04-28T16:50:11.167Z</time></trkpt><trkpt lat="43.1188168" lon="12.4309634"><ele>266.0</ele><time>2026-04-28T16:50:16.165Z</time></trkpt><trkpt lat="43.118885" lon="12.4309223"><ele>266.0</ele><time>2026-04-28T16:50:20.141Z</time></trkpt><trkpt lat="43.1189465" lon="12.4308867"><ele>266.0</ele><time>2026-04-28T16:50:23.291Z</time></trkpt><trkpt lat="43.1190069" lon="12.4308494"><ele>266.0</ele><time>2026-04-28T16:50:27.059Z</time></trkpt><trkpt lat="43.1190876" lon="12.4308134"><ele>266.0</ele><time>2026-04-28T16:50:31.137Z</time></trkpt><trkpt lat="43.1191564" lon="12.4307642"><ele>265.83333333333337</ele><time>2026-04-28T16:50:35.263Z</time></trkpt><trkpt lat="43.119223" lon="12.4307257"><ele>265.6666666666667</ele><time>2026-04-28T16:50:39.148Z</time></trkpt><trkpt lat="43.1193226" lon="12.4306648"><ele>265.5</ele><time>2026-04-28T16:50:43.261Z</time></trkpt><trkpt lat="43.1193944" lon="12.4306249"><ele>265.3333333333333</ele><time>2026-04-28T16:50:48.136Z</time></trkpt><trkpt lat="43.1194569" lon="12.4305901"><ele>265.16666666666663</ele><time>2026-04-28T16:50:51.152Z</time></trkpt><trkpt lat="43.1195165" lon="12.4305616"><ele>265.0</ele><time>2026-04-28T16:50:54.182Z</time></trkpt><trkpt lat="43.1195771" lon="12.4305328"><ele>264.99999999999994</ele><time>2026-04-28T16:50:57.249Z</time></trkpt><trkpt lat="43.11965" lon="12.4305007"><ele>265.0</ele><time>2026-04-28T16:51:00.659Z</time></trkpt><trkpt lat="43.1197202" lon="12.4304789"><ele>265.0</ele><time>2026-04-28T16:51:04.183Z</time></trkpt><trkpt lat="43.1198014" lon="12.4304537"><ele>265.0</ele><time>2026-04-28T16:51:08.166Z</time></trkpt><trkpt lat="43.1198649" lon="12.4304329"><ele>265.0</ele><time>2026-04-28T16:51:11.152Z</time></trkpt><trkpt lat="43.1199404" lon="12.4304239"><ele>264.99999999999994</ele><time>2026-04-28T16:51:15.158Z</time></trkpt><trkpt lat="43.1200123" lon="12.4304279"><ele>265.0</ele><time>2026-04-28T16:51:17.984Z</time></trkpt><trkpt lat="43.1200767" lon="12.4304504"><ele>265.5</ele><time>2026-04-28T16:51:21.243Z</time></trkpt><trkpt lat="43.1201566" lon="12.4304471"><ele>266.0</ele><time>2026-04-28T16:51:25.159Z</time></trkpt><trkpt lat="43.1202425" lon="12.4304335"><ele>266.5</ele><time>2026-04-28T16:51:29.145Z</time></trkpt><trkpt lat="43.1203138" lon="12.4304383"><ele>267.0</ele><time>2026-04-28T16:51:32.119Z</time></trkpt><trkpt lat="43.1203988" lon="12.430445"><ele>267.5</ele><time>2026-04-28T16:51:36.158Z</time></trkpt><trkpt lat="43.1204805" lon="12.4304583"><ele>268.0</ele><time>2026-04-28T16:51:40.164Z</time></trkpt><trkpt lat="43.1205608" lon="12.4304811"><ele>268.0</ele><time>2026-04-28T16:51:44.087Z</time></trkpt><trkpt lat="43.120634" lon="12.4304912"><ele>268.0</ele><time>2026-04-28T16:51:48.196Z</time></trkpt><trkpt lat="43.1207067" lon="12.4305157"><ele>268.0</ele><time>2026-04-28T16:51:52.165Z</time></trkpt><trkpt lat="43.1207891" lon="12.4305302"><ele>268.0</ele><time>2026-04-28T16:51:56.162Z</time></trkpt><trkpt lat="43.1208734" lon="12.4305382"><ele>268.0</ele><time>2026-04-28T16:52:00.143Z</time></trkpt><trkpt lat="43.120955" lon="12.4305279"><ele>268.0</ele><time>2026-04-28T16:52:04.174Z</time></trkpt><trkpt lat="43.1210142" lon="12.4304974"><ele>270.14285714285717</ele><time>2026-04-28T16:52:07.185Z</time></trkpt><trkpt lat="43.1210895" lon="12.4304703"><ele>272.2857142857143</ele><time>2026-04-28T16:52:11.08Z</time></trkpt><trkpt lat="43.1211466" lon="12.4304295"><ele>274.42857142857144</ele><time>2026-04-28T16:52:14.227Z</time></trkpt><trkpt lat="43.1212068" lon="12.4303718"><ele>276.57142857142856</ele><time>2026-04-28T16:52:18.14Z</time></trkpt><trkpt lat="43.1212586" lon="12.430305"><ele>278.7142857142857</ele><time>2026-04-28T16:52:22.237Z</time></trkpt><trkpt lat="43.1213104" lon="12.4302269"><ele>280.8571428571429</ele><time>2026-04-28T16:52:25.86Z</time></trkpt><trkpt lat="43.1213079" lon="12.4301119"><ele>283.0</ele><time>2026-04-28T16:52:30.155Z</time></trkpt><trkpt lat="43.1212535" lon="12.4300308"><ele>283.0</ele><time>2026-04-28T16:52:33.164Z</time></trkpt><trkpt lat="43.121183" lon="12.4299883"><ele>283.0</ele><time>2026-04-28T16:52:37.175Z</time></trkpt><trkpt lat="43.1211136" lon="12.4299472"><ele>283.0</ele><time>2026-04-28T16:52:41.181Z</time></trkpt><trkpt lat="43.1210546" lon="12.4298806"><ele>283.0</ele><time>2026-04-28T16:52:45.173Z</time></trkpt><trkpt lat="43.1209845" lon="12.4298342"><ele>283.0</ele><time>2026-04-28T16:52:49.184Z</time></trkpt><trkpt lat="43.1209151" lon="12.4298084"><ele>283.0</ele><time>2026-04-28T16:52:53.188Z</time></trkpt><trkpt lat="43.12086" lon="12.4297624"><ele>283.0</ele><time>2026-04-28T16:52:57.173Z</time></trkpt><trkpt lat="43.120805" lon="12.4297061"><ele>283.0</ele><time>2026-04-28T16:53:01.153Z</time></trkpt><trkpt lat="43.1207428" lon="12.429663"><ele>283.0</ele><time>2026-04-28T16:53:05.154Z</time></trkpt><trkpt lat="43.1206822" lon="12.4296184"><ele>283.0</ele><time>2026-04-28T16:53:08.165Z</time></trkpt><trkpt lat="43.1206244" lon="12.4295822"><ele>283.0</ele><time>2026-04-28T16:53:11.14Z</time></trkpt><trkpt lat="43.1205566" lon="12.4295487"><ele>283.0</ele><time>2026-04-28T16:53:15.18Z</time></trkpt><trkpt lat="43.1204855" lon="12.4295191"><ele>283.0</ele><time>2026-04-28T16:53:19.168Z</time></trkpt><trkpt lat="43.1204111" lon="12.4294943"><ele>283.0</ele><time>2026-04-28T16:53:23.156Z</time></trkpt><trkpt lat="43.1203479" lon="12.4294825"><ele>285.0</ele><time>2026-04-28T16:53:26.157Z</time></trkpt><trkpt lat="43.1202717" lon="12.4294578"><ele>287.0</ele><time>2026-04-28T16:53:30.275Z</time></trkpt><trkpt lat="43.1202072" lon="12.4294348"><ele>289.0</ele><time>2026-04-28T16:53:34.198Z</time></trkpt><trkpt lat="43.1201436" lon="12.4293863"><ele>291.0</ele><time>2026-04-28T16:53:38.178Z</time></trkpt><trkpt lat="43.1200681" lon="12.4293531"><ele>293.0</ele><time>2026-04-28T16:53:42.179Z</time></trkpt><trkpt lat="43.1199977" lon="12.4293226"><ele>295.0</ele><time>2026-04-28T16:53:46.204Z</time></trkpt><trkpt lat="43.1199214" lon="12.4292956"><ele>295.0</ele><time>2026-04-28T16:53:50.172Z</time></trkpt><trkpt lat="43.1198449" lon="12.4292597"><ele>295.0</ele><time>2026-04-28T16:53:54.167Z</time></trkpt><trkpt lat="43.1197744" lon="12.4292449"><ele>295.0</ele><time>2026-04-28T16:53:58.21Z</time></trkpt><trkpt lat="43.1197063" lon="12.4292149"><ele>295.0</ele><time>2026-04-28T16:54:02.179Z</time></trkpt><trkpt lat="43.1196352" lon="12.4291844"><ele>295.0</ele><time>2026-04-28T16:54:06.204Z</time></trkpt><trkpt lat="43.1195595" lon="12.4291571"><ele>295.0</ele><time>2026-04-28T16:54:10.272Z</time></trkpt><trkpt lat="43.1194868" lon="12.4291326"><ele>295.00000000000006</ele><time>2026-04-28T16:54:14.158Z</time></trkpt><trkpt lat="43.1194136" lon="12.4290997"><ele>295.0</ele><time>2026-04-28T16:54:18.184Z</time></trkpt><trkpt lat="43.1193413" lon="12.4290672"><ele>295.0</ele><time>2026-04-28T16:54:22.17Z</time></trkpt><trkpt lat="43.1192733" lon="12.4290379"><ele>295.0</ele><time>2026-04-28T16:54:26.162Z</time></trkpt><trkpt lat="43.1191962" lon="12.4290173"><ele>295.0</ele><time>2026-04-28T16:54:30.216Z</time></trkpt><trkpt lat="43.1191295" lon="12.4290037"><ele>295.00000000000006</ele><time>2026-04-28T16:54:34.179Z</time></trkpt><trkpt lat="43.1190558" lon="12.4289721"><ele>295.0</ele><time>2026-04-28T16:54:38.158Z</time></trkpt><trkpt lat="43.1189801" lon="12.4289344"><ele>295.00000000000006</ele><time>2026-04-28T16:54:42.191Z</time></trkpt><trkpt lat="43.1189134" lon="12.4289004"><ele>295.0</ele><time>2026-04-28T16:54:46.144Z</time></trkpt><trkpt lat="43.1188422" lon="12.4288702"><ele>295.0</ele><time>2026-04-28T16:54:50.179Z</time></trkpt><trkpt lat="43.1187768" lon="12.4288558"><ele>295.0</ele><time>2026-04-28T16:54:53.161Z</time></trkpt><trkpt lat="43.1187085" lon="12.4288387"><ele>295.0</ele><time>2026-04-28T16:54:57.178Z</time></trkpt><trkpt lat="43.1186403" lon="12.4288047"><ele>295.00000000000006</ele><time>2026-04-28T16:55:01.134Z</time></trkpt><trkpt lat="43.1185692" lon="12.4287554"><ele>295.0</ele><time>2026-04-28T16:55:05.254Z</time></trkpt><trkpt lat="43.1184996" lon="12.4287223"><ele>296.16666666666663</ele><time>2026-04-28T16:55:09.175Z</time></trkpt><trkpt lat="43.1184318" lon="12.4286835"><ele>297.3333333333333</ele><time>2026-04-28T16:55:13.103Z</time></trkpt><trkpt lat="43.1183957" lon="12.4286102"><ele>298.5</ele><time>2026-04-28T16:55:16.517Z</time></trkpt><trkpt lat="43.1183774" lon="12.4284895"><ele>299.6666666666667</ele><time>2026-04-28T16:55:21.104Z</time></trkpt><trkpt lat="43.1184101" lon="12.4283893"><ele>300.83333333333337</ele><time>2026-04-28T16:55:25.183Z</time></trkpt><trkpt lat="43.1184255" lon="12.4282997"><ele>302.0</ele><time>2026-04-28T16:55:28.195Z</time></trkpt><trkpt lat="43.1184114" lon="12.4281927"><ele>302.0</ele><time>2026-04-28T16:55:32.172Z</time></trkpt><trkpt lat="43.1184023" lon="12.4280818"><ele>302.0</ele><time>2026-04-28T16:55:36.173Z</time></trkpt><trkpt lat="43.1183946" lon="12.4279767"><ele>302.0</ele><time>2026-04-28T16:55:39.947Z</time></trkpt><trkpt lat="43.1183865" lon="12.4278843"><ele>302.0</ele><time>2026-04-28T16:55:43.172Z</time></trkpt><trkpt lat="43.1183621" lon="12.4277879"><ele>302.0</ele><time>2026-04-28T16:55:47.213Z</time></trkpt><trkpt lat="43.1183128" lon="12.4277155"><ele>302.0</ele><time>2026-04-28T16:55:51.185Z</time></trkpt><trkpt lat="43.1182571" lon="12.4276308"><ele>301.33333333333337</ele><time>2026-04-28T16:55:55.177Z</time></trkpt><trkpt lat="43.1182046" lon="12.4275786"><ele>300.6666666666667</ele><time>2026-04-28T16:55:58.268Z</time></trkpt><trkpt lat="43.1181449" lon="12.427508"><ele>300.0</ele><time>2026-04-28T16:56:02.192Z</time></trkpt><trkpt lat="43.1180848" lon="12.4274424"><ele>299.3333333333333</ele><time>2026-04-28T16:56:06.16Z</time></trkpt><trkpt lat="43.1180208" lon="12.4273653"><ele>298.66666666666663</ele><time>2026-04-28T16:56:10.156Z</time></trkpt><trkpt lat="43.1179627" lon="12.4273021"><ele>298.0</ele><time>2026-04-28T16:56:14.151Z</time></trkpt><trkpt lat="43.1179064" lon="12.4272266"><ele>298.0</ele><time>2026-04-28T16:56:18.153Z</time></trkpt><trkpt lat="43.1178408" lon="12.4271556"><ele>298.0</ele><time>2026-04-28T16:56:22.28Z</time></trkpt><trkpt lat="43.1177872" lon="12.427092"><ele>298.0</ele><time>2026-04-28T16:56:26.143Z</time></trkpt><trkpt lat="43.1177378" lon="12.4270382"><ele>298.0</ele><time>2026-04-28T16:56:29.249Z</time></trkpt><trkpt lat="43.1176807" lon="12.4269776"><ele>298.0</ele><time>2026-04-28T16:56:32.825Z</time></trkpt><trkpt lat="43.1176329" lon="12.4269193"><ele>298.0</ele><time>2026-04-28T16:56:36.154Z</time></trkpt><trkpt lat="43.1175692" lon="12.4268507"><ele>298.0</ele><time>2026-04-28T16:56:40.231Z</time></trkpt><trkpt lat="43.1175139" lon="12.4267947"><ele>299.2857142857143</ele><time>2026-04-28T16:56:44.16Z</time></trkpt><trkpt lat="43.1174583" lon="12.426716"><ele>300.57142857142856</ele><time>2026-04-28T16:56:48.194Z</time></trkpt><trkpt lat="43.1174202" lon="12.4266221"><ele>301.85714285714283</ele><time>2026-04-28T16:56:52.199Z</time></trkpt><trkpt lat="43.1174094" lon="12.426537"><ele>303.1428571428571</ele><time>2026-04-28T16:56:55.167Z</time></trkpt><trkpt lat="43.1174186" lon="12.4264254"><ele>304.42857142857144</ele><time>2026-04-28T16:56:59.182Z</time></trkpt><trkpt lat="43.1174501" lon="12.4263435"><ele>305.71428571428567</ele><time>2026-04-28T16:57:03.292Z</time></trkpt><trkpt lat="43.117498" lon="12.4262841"><ele>307.0</ele><time>2026-04-28T16:57:06.186Z</time></trkpt><trkpt lat="43.1175547" lon="12.4262411"><ele>306.99999999999994</ele><time>2026-04-28T16:57:09.164Z</time></trkpt><trkpt lat="43.1176182" lon="12.4262013"><ele>307.0</ele><time>2026-04-28T16:57:12.178Z</time></trkpt><trkpt lat="43.1176775" lon="12.4261329"><ele>307.0</ele><time>2026-04-28T16:57:15.706Z</time></trkpt><trkpt lat="43.1177368" lon="12.4260683"><ele>307.0</ele><time>2026-04-28T16:57:19.174Z</time></trkpt><trkpt lat="43.1177924" lon="12.4260265"><ele>307.0</ele><time>2026-04-28T16:57:22.191Z</time></trkpt><trkpt lat="43.117865" lon="12.4259702"><ele>306.99999999999994</ele><time>2026-04-28T16:57:26.163Z</time></trkpt><trkpt lat="43.1179255" lon="12.4259233"><ele>307.0</ele><time>2026-04-28T16:57:29.164Z</time></trkpt><trkpt lat="43.1179909" lon="12.4258689"><ele>307.0</ele><time>2026-04-28T16:57:32.195Z</time></trkpt><trkpt lat="43.1180564" lon="12.4258125"><ele>307.0</ele><time>2026-04-28T16:57:35.121Z</time></trkpt><trkpt lat="43.1181211" lon="12.4257516"><ele>307.0</ele><time>2026-04-28T16:57:38.176Z</time></trkpt><trkpt lat="43.1181865" lon="12.4256932"><ele>307.0</ele><time>2026-04-28T16:57:41.149Z</time></trkpt><trkpt lat="43.1182612" lon="12.4256396"><ele>307.0</ele><time>2026-04-28T16:57:44.166Z</time></trkpt><trkpt lat="43.1183366" lon="12.4255788"><ele>307.0</ele><time>2026-04-28T16:57:47.138Z</time></trkpt><trkpt lat="43.1183899" lon="12.4255271"><ele>307.16666666666663</ele><time>2026-04-28T16:57:49.175Z</time></trkpt><trkpt lat="43.1184626" lon="12.4254526"><ele>307.3333333333333</ele><time>2026-04-28T16:57:52.161Z</time></trkpt><trkpt lat="43.1185184" lon="12.425407"><ele>307.5</ele><time>2026-04-28T16:57:54.167Z</time></trkpt><trkpt lat="43.1185942" lon="12.425347"><ele>307.6666666666667</ele><time>2026-04-28T16:57:57.154Z</time></trkpt><trkpt lat="43.1186684" lon="12.4252825"><ele>307.83333333333337</ele><time>2026-04-28T16:58:00.202Z</time></trkpt><trkpt lat="43.1187298" lon="12.4252062"><ele>308.0</ele><time>2026-04-28T16:58:03.147Z</time></trkpt><trkpt lat="43.1187668" lon="12.4251334"><ele>308.0</ele><time>2026-04-28T16:58:05.266Z</time></trkpt><trkpt lat="43.1188104" lon="12.4250327"><ele>308.0</ele><time>2026-04-28T16:58:08.195Z</time></trkpt><trkpt lat="43.1188418" lon="12.4249194"><ele>308.0</ele><time>2026-04-28T16:58:11.166Z</time></trkpt><trkpt lat="43.1188621" lon="12.4248374"><ele>308.0</ele><time>2026-04-28T16:58:13.187Z</time></trkpt><trkpt lat="43.1188667" lon="12.4247221"><ele>308.0</ele><time>2026-04-28T16:58:16.179Z</time></trkpt><trkpt lat="43.1188592" lon="12.4246049"><ele>308.0</ele><time>2026-04-28T16:58:19.124Z</time></trkpt><trkpt lat="43.1188337" lon="12.4244985"><ele>308.83333333333337</ele><time>2026-04-28T16:58:22.086Z</time></trkpt><trkpt lat="43.1188091" lon="12.4243867"><ele>309.6666666666667</ele><time>2026-04-28T16:58:25.128Z</time></trkpt><trkpt lat="43.1187706" lon="12.4242829"><ele>310.5</ele><time>2026-04-28T16:58:28.179Z</time></trkpt><trkpt lat="43.1187359" lon="12.4241833"><ele>311.3333333333333</ele><time>2026-04-28T16:58:31.182Z</time></trkpt><trkpt lat="43.1186994" lon="12.4240839"><ele>312.16666666666663</ele><time>2026-04-28T16:58:34.181Z</time></trkpt><trkpt lat="43.1186662" lon="12.4239768"><ele>313.0</ele><time>2026-04-28T16:58:37.161Z</time></trkpt><trkpt lat="43.1186364" lon="12.4238752"><ele>315.8333333333333</ele><time>2026-04-28T16:58:40.171Z</time></trkpt><trkpt lat="43.1185983" lon="12.4237961"><ele>318.66666666666663</ele><time>2026-04-28T16:58:43.106Z</time></trkpt><trkpt lat="43.1185539" lon="12.4237089"><ele>321.5</ele><time>2026-04-28T16:58:46.163Z</time></trkpt><trkpt lat="43.1185004" lon="12.4236372"><ele>324.3333333333333</ele><time>2026-04-28T16:58:49.151Z</time></trkpt><trkpt lat="43.1184334" lon="12.4235708"><ele>327.1666666666667</ele><time>2026-04-28T16:58:52.298Z</time></trkpt><trkpt lat="43.1183744" lon="12.4235287"><ele>330.0</ele><time>2026-04-28T16:58:54.843Z</time></trkpt><trkpt lat="43.1182957" lon="12.4234773"><ele>327.3333333333333</ele><time>2026-04-28T16:58:58.165Z</time></trkpt><trkpt lat="43.1182178" lon="12.4234546"><ele>324.6666666666667</ele><time>2026-04-28T16:59:01.124Z</time></trkpt><trkpt lat="43.1181411" lon="12.4234375"><ele>322.0</ele><time>2026-04-28T16:59:04.148Z</time></trkpt><trkpt lat="43.1180621" lon="12.4234115"><ele>319.33333333333337</ele><time>2026-04-28T16:59:07.286Z</time></trkpt><trkpt lat="43.1179944" lon="12.4233906"><ele>316.6666666666667</ele><time>2026-04-28T16:59:09.742Z</time></trkpt><trkpt lat="43.1179176" lon="12.4233592"><ele>314.0</ele><time>2026-04-28T16:59:12.825Z</time></trkpt><trkpt lat="43.1178368" lon="12.4233227"><ele>314.0</ele><time>2026-04-28T16:59:16.188Z</time></trkpt><trkpt lat="43.1177689" lon="12.423281"><ele>314.0</ele><time>2026-04-28T16:59:19.198Z</time></trkpt><trkpt lat="43.1177011" lon="12.4232412"><ele>314.0</ele><time>2026-04-28T16:59:22.157Z</time></trkpt><trkpt lat="43.1176353" lon="12.4231782"><ele>314.0</ele><time>2026-04-28T16:59:25.223Z</time></trkpt><trkpt lat="43.1176006" lon="12.4230822"><ele>314.0</ele><time>2026-04-28T16:59:28.195Z</time></trkpt><trkpt lat="43.117598" lon="12.422976"><ele>314.0</ele><time>2026-04-28T16:59:31.187Z</time></trkpt><trkpt lat="43.1176244" lon="12.4228755"><ele>315.5</ele><time>2026-04-28T16:59:34.172Z</time></trkpt><trkpt lat="43.1176617" lon="12.4227843"><ele>317.0</ele><time>2026-04-28T16:59:37.441Z</time></trkpt><trkpt lat="43.1177155" lon="12.4226569"><ele>318.5</ele><time>2026-04-28T16:59:42.186Z</time></trkpt><trkpt lat="43.1177493" lon="12.4225685"><ele>320.0</ele><time>2026-04-28T16:59:45.153Z</time></trkpt><trkpt lat="43.1177827" lon="12.4224665"><ele>321.5</ele><time>2026-04-28T16:59:48.29Z</time></trkpt><trkpt lat="43.1178105" lon="12.4223709"><ele>323.0</ele><time>2026-04-28T16:59:51.164Z</time></trkpt><trkpt lat="43.1177559" lon="12.4224406"><ele>323.00000000000006</ele><time>2026-04-28T17:00:04.162Z</time></trkpt><trkpt lat="43.1178108" lon="12.4223611"><ele>323.0</ele><time>2026-04-28T17:00:26.183Z</time></trkpt><trkpt lat="43.1178404" lon="12.4222565"><ele>323.0</ele><time>2026-04-28T17:00:30.195Z</time></trkpt><trkpt lat="43.1178703" lon="12.4221705"><ele>323.0</ele><time>2026-04-28T17:00:34.184Z</time></trkpt><trkpt lat="43.1179054" lon="12.4220832"><ele>323.0</ele><time>2026-04-28T17:00:38.165Z</time></trkpt><trkpt lat="43.117934" lon="12.422006"><ele>323.00000000000006</ele><time>2026-04-28T17:00:41.179Z</time></trkpt><trkpt lat="43.1179619" lon="12.4219274"><ele>323.0</ele><time>2026-04-28T17:00:44.163Z</time></trkpt><trkpt lat="43.1179909" lon="12.4218448"><ele>322.8571428571429</ele><time>2026-04-28T17:00:47.128Z</time></trkpt><trkpt lat="43.1180236" lon="12.4217655"><ele>322.7142857142857</ele><time>2026-04-28T17:00:50.168Z</time></trkpt><trkpt lat="43.1180607" lon="12.4216851"><ele>322.57142857142856</ele><time>2026-04-28T17:00:53.182Z</time></trkpt><trkpt lat="43.1181311" lon="12.4215974"><ele>322.42857142857144</ele><time>2026-04-28T17:00:57.212Z</time></trkpt><trkpt lat="43.1181905" lon="12.4215473"><ele>322.2857142857143</ele><time>2026-04-28T17:01:00.177Z</time></trkpt><trkpt lat="43.1182584" lon="12.421502"><ele>322.14285714285717</ele><time>2026-04-28T17:01:03.168Z</time></trkpt><trkpt lat="43.1183201" lon="12.4214504"><ele>322.0</ele><time>2026-04-28T17:01:06.29Z</time></trkpt><trkpt lat="43.1183772" lon="12.4214076"><ele>323.14285714285717</ele><time>2026-04-28T17:01:09.156Z</time></trkpt><trkpt lat="43.1184454" lon="12.4213678"><ele>324.2857142857143</ele><time>2026-04-28T17:01:12.156Z</time></trkpt><trkpt lat="43.118515" lon="12.4213264"><ele>325.42857142857144</ele><time>2026-04-28T17:01:15.166Z</time></trkpt><trkpt lat="43.1185719" lon="12.4212757"><ele>326.57142857142856</ele><time>2026-04-28T17:01:18.164Z</time></trkpt><trkpt lat="43.1186317" lon="12.4212135"><ele>327.7142857142857</ele><time>2026-04-28T17:01:21.155Z</time></trkpt><trkpt lat="43.1186908" lon="12.4211521"><ele>328.8571428571429</ele><time>2026-04-28T17:01:24.153Z</time></trkpt><trkpt lat="43.118743" lon="12.4210868"><ele>330.0</ele><time>2026-04-28T17:01:27.156Z</time></trkpt><trkpt lat="43.1187772" lon="12.421008"><ele>330.0</ele><time>2026-04-28T17:01:30.264Z</time></trkpt><trkpt lat="43.1188074" lon="12.4209247"><ele>330.0</ele><time>2026-04-28T17:01:33.196Z</time></trkpt><trkpt lat="43.1188245" lon="12.420839"><ele>330.0</ele><time>2026-04-28T17:01:36.17Z</time></trkpt><trkpt lat="43.1188415" lon="12.4207415"><ele>330.0</ele><time>2026-04-28T17:01:39.181Z</time></trkpt><trkpt lat="43.1188533" lon="12.420632"><ele>330.0</ele><time>2026-04-28T17:01:42.149Z</time></trkpt><trkpt lat="43.1188617" lon="12.4205165"><ele>330.0</ele><time>2026-04-28T17:01:45.146Z</time></trkpt><trkpt lat="43.1188643" lon="12.4204026"><ele>329.6666666666667</ele><time>2026-04-28T17:01:48.158Z</time></trkpt><trkpt lat="43.1188837" lon="12.4202927"><ele>329.3333333333333</ele><time>2026-04-28T17:01:51.168Z</time></trkpt><trkpt lat="43.1188975" lon="12.4201958"><ele>329.0</ele><time>2026-04-28T17:01:54.126Z</time></trkpt><trkpt lat="43.1189039" lon="12.4200846"><ele>328.66666666666663</ele><time>2026-04-28T17:01:57.169Z</time></trkpt><trkpt lat="43.1189086" lon="12.4199723"><ele>328.3333333333333</ele><time>2026-04-28T17:02:00.176Z</time></trkpt><trkpt lat="43.118919" lon="12.4198519"><ele>328.0</ele><time>2026-04-28T17:02:03.183Z</time></trkpt><trkpt lat="43.1189265" lon="12.4197312"><ele>328.0</ele><time>2026-04-28T17:02:06.147Z</time></trkpt><trkpt lat="43.1189422" lon="12.4196172"><ele>328.0</ele><time>2026-04-28T17:02:09.173Z</time></trkpt><trkpt lat="43.1189565" lon="12.4195048"><ele>328.0</ele><time>2026-04-28T17:02:12.173Z</time></trkpt><trkpt lat="43.1189599" lon="12.4193877"><ele>328.0</ele><time>2026-04-28T17:02:15.18Z</time></trkpt><trkpt lat="43.11897" lon="12.4192789"><ele>328.0</ele><time>2026-04-28T17:02:18.136Z</time></trkpt><trkpt lat="43.1189795" lon="12.4191643"><ele>328.0</ele><time>2026-04-28T17:02:21.171Z</time></trkpt><trkpt lat="43.1189982" lon="12.4190782"><ele>328.0</ele><time>2026-04-28T17:02:23.287Z</time></trkpt><trkpt lat="43.1190021" lon="12.4189637"><ele>328.0</ele><time>2026-04-28T17:02:26.174Z</time></trkpt><trkpt lat="43.1190077" lon="12.4188479"><ele>328.0</ele><time>2026-04-28T17:02:29.184Z</time></trkpt><trkpt lat="43.119017" lon="12.4187263"><ele>328.0</ele><time>2026-04-28T17:02:32.185Z</time></trkpt><trkpt lat="43.1190173" lon="12.4186067"><ele>328.0</ele><time>2026-04-28T17:02:35.127Z</time></trkpt><trkpt lat="43.1190331" lon="12.4184916"><ele>328.0</ele><time>2026-04-28T17:02:38.186Z</time></trkpt><trkpt lat="43.1190364" lon="12.4183753"><ele>326.5</ele><time>2026-04-28T17:02:41.159Z</time></trkpt><trkpt lat="43.1190557" lon="12.4182491"><ele>325.0</ele><time>2026-04-28T17:02:44.188Z</time></trkpt><trkpt lat="43.1190717" lon="12.4181313"><ele>323.5</ele><time>2026-04-28T17:02:47.127Z</time></trkpt><trkpt lat="43.1190963" lon="12.41801"><ele>322.0</ele><time>2026-04-28T17:02:50.319Z</time></trkpt><trkpt lat="43.1191349" lon="12.4179097"><ele>320.5</ele><time>2026-04-28T17:02:53.184Z</time></trkpt><trkpt lat="43.1191778" lon="12.4178151"><ele>319.0</ele><time>2026-04-28T17:02:56.181Z</time></trkpt><trkpt lat="43.1192229" lon="12.4177231"><ele>322.16666666666663</ele><time>2026-04-28T17:02:59.168Z</time></trkpt><trkpt lat="43.1192709" lon="12.4176346"><ele>325.3333333333333</ele><time>2026-04-28T17:03:02.139Z</time></trkpt><trkpt lat="43.1193223" lon="12.4175515"><ele>328.5</ele><time>2026-04-28T17:03:05.129Z</time></trkpt><trkpt lat="43.1193696" lon="12.4174699"><ele>331.6666666666667</ele><time>2026-04-28T17:03:08.146Z</time></trkpt><trkpt lat="43.1194168" lon="12.4173948"><ele>334.83333333333337</ele><time>2026-04-28T17:03:11.146Z</time></trkpt><trkpt lat="43.1194644" lon="12.4173231"><ele>338.0</ele><time>2026-04-28T17:03:14.135Z</time></trkpt><trkpt lat="43.1195083" lon="12.4172404"><ele>338.1666666666667</ele><time>2026-04-28T17:03:17.124Z</time></trkpt><trkpt lat="43.1195487" lon="12.4171437"><ele>338.33333333333337</ele><time>2026-04-28T17:03:20.144Z</time></trkpt><trkpt lat="43.1195798" lon="12.4170396"><ele>338.5</ele><time>2026-04-28T17:03:23.24Z</time></trkpt><trkpt lat="43.1195996" lon="12.4169293"><ele>338.6666666666667</ele><time>2026-04-28T17:03:26.37Z</time></trkpt><trkpt lat="43.1196098" lon="12.4168271"><ele>338.8333333333333</ele><time>2026-04-28T17:03:29.159Z</time></trkpt><trkpt lat="43.119616" lon="12.4167366"><ele>339.0</ele><time>2026-04-28T17:03:32.208Z</time></trkpt><trkpt lat="43.1196134" lon="12.4166368"><ele>339.0</ele><time>2026-04-28T17:03:35.156Z</time></trkpt><trkpt lat="43.1195963" lon="12.4165366"><ele>339.0</ele><time>2026-04-28T17:03:38.172Z</time></trkpt><trkpt lat="43.1195664" lon="12.4164414"><ele>339.0</ele><time>2026-04-28T17:03:41.176Z</time></trkpt><trkpt lat="43.1195038" lon="12.4163315"><ele>339.0</ele><time>2026-04-28T17:03:45.193Z</time></trkpt><trkpt lat="43.1194522" lon="12.416251"><ele>339.0</ele><time>2026-04-28T17:03:48.165Z</time></trkpt><trkpt lat="43.119398" lon="12.4161794"><ele>339.0</ele><time>2026-04-28T17:03:51.165Z</time></trkpt><trkpt lat="43.1193402" lon="12.4161114"><ele>339.8333333333333</ele><time>2026-04-28T17:03:54.18Z</time></trkpt><trkpt lat="43.1192747" lon="12.4160537"><ele>340.6666666666667</ele><time>2026-04-28T17:03:57.187Z</time></trkpt><trkpt lat="43.1192109" lon="12.415995"><ele>341.5</ele><time>2026-04-28T17:04:00.189Z</time></trkpt><trkpt lat="43.119148" lon="12.415936"><ele>342.33333333333337</ele><time>2026-04-28T17:04:03.163Z</time></trkpt><trkpt lat="43.1190825" lon="12.4158864"><ele>343.1666666666667</ele><time>2026-04-28T17:04:06.171Z</time></trkpt><trkpt lat="43.1190204" lon="12.4158461"><ele>344.0</ele><time>2026-04-28T17:04:09.172Z</time></trkpt><trkpt lat="43.1189533" lon="12.4157857"><ele>344.00000000000006</ele><time>2026-04-28T17:04:13.158Z</time></trkpt><trkpt lat="43.118892" lon="12.4157338"><ele>344.0</ele><time>2026-04-28T17:04:16.178Z</time></trkpt><trkpt lat="43.1188403" lon="12.4156668"><ele>344.0</ele><time>2026-04-28T17:04:19.156Z</time></trkpt><trkpt lat="43.1187868" lon="12.4156127"><ele>344.0</ele><time>2026-04-28T17:04:22.224Z</time></trkpt><trkpt lat="43.118735" lon="12.4155574"><ele>344.0</ele><time>2026-04-28T17:04:25.166Z</time></trkpt><trkpt lat="43.1186804" lon="12.4155019"><ele>344.00000000000006</ele><time>2026-04-28T17:04:28.169Z</time></trkpt><trkpt lat="43.1186261" lon="12.4154492"><ele>344.0</ele><time>2026-04-28T17:04:31.177Z</time></trkpt><trkpt lat="43.1185692" lon="12.415399"><ele>343.42857142857144</ele><time>2026-04-28T17:04:34.174Z</time></trkpt><trkpt lat="43.1185117" lon="12.415344"><ele>342.8571428571429</ele><time>2026-04-28T17:04:37.176Z</time></trkpt><trkpt lat="43.1184584" lon="12.4152821"><ele>342.28571428571433</ele><time>2026-04-28T17:04:40.176Z</time></trkpt><trkpt lat="43.1184115" lon="12.4152238"><ele>341.7142857142857</ele><time>2026-04-28T17:04:43.122Z</time></trkpt><trkpt lat="43.1183611" lon="12.4151661"><ele>341.1428571428571</ele><time>2026-04-28T17:04:46.262Z</time></trkpt><trkpt lat="43.1182966" lon="12.4151001"><ele>340.5714285714286</ele><time>2026-04-28T17:04:50.136Z</time></trkpt><trkpt lat="43.1182302" lon="12.4150338"><ele>340.0</ele><time>2026-04-28T17:04:54.111Z</time></trkpt><trkpt lat="43.1181689" lon="12.4149521"><ele>340.0</ele><time>2026-04-28T17:04:58.198Z</time></trkpt><trkpt lat="43.1181198" lon="12.4148562"><ele>340.0</ele><time>2026-04-28T17:05:02.202Z</time></trkpt><trkpt lat="43.1180795" lon="12.4147827"><ele>340.0</ele><time>2026-04-28T17:05:05.169Z</time></trkpt><trkpt lat="43.1180431" lon="12.414699"><ele>340.0</ele><time>2026-04-28T17:05:08.395Z</time></trkpt><trkpt lat="43.1180224" lon="12.4145831"><ele>340.0</ele><time>2026-04-28T17:05:12.198Z</time></trkpt><trkpt lat="43.1180138" lon="12.4144945"><ele>340.0</ele><time>2026-04-28T17:05:15.191Z</time></trkpt><trkpt lat="43.1180047" lon="12.4144002"><ele>340.0</ele><time>2026-04-28T17:05:18.161Z</time></trkpt><trkpt lat="43.1180006" lon="12.4143135"><ele>340.42857142857144</ele><time>2026-04-28T17:05:21.168Z</time></trkpt><trkpt lat="43.1180135" lon="12.41422"><ele>340.85714285714283</ele><time>2026-04-28T17:05:24.183Z</time></trkpt><trkpt lat="43.118033" lon="12.4141262"><ele>341.2857142857143</ele><time>2026-04-28T17:05:27.193Z</time></trkpt><trkpt lat="43.1180553" lon="12.4140307"><ele>341.7142857142857</ele><time>2026-04-28T17:05:30.163Z</time></trkpt><trkpt lat="43.1180903" lon="12.4139403"><ele>342.1428571428571</ele><time>2026-04-28T17:05:33.156Z</time></trkpt><trkpt lat="43.1181088" lon="12.4138516"><ele>342.57142857142856</ele><time>2026-04-28T17:05:36.152Z</time></trkpt><trkpt lat="43.1181335" lon="12.4137653"><ele>343.0</ele><time>2026-04-28T17:05:39.162Z</time></trkpt><trkpt lat="43.1181589" lon="12.4136763"><ele>343.0</ele><time>2026-04-28T17:05:42.172Z</time></trkpt><trkpt lat="43.1181819" lon="12.4135852"><ele>343.0</ele><time>2026-04-28T17:05:45.162Z</time></trkpt><trkpt lat="43.118202" lon="12.413485"><ele>343.0</ele><time>2026-04-28T17:05:48.18Z</time></trkpt><trkpt lat="43.1182162" lon="12.413383"><ele>343.0</ele><time>2026-04-28T17:05:51.165Z</time></trkpt><trkpt lat="43.1182204" lon="12.4132746"><ele>343.0</ele><time>2026-04-28T17:05:54.179Z</time></trkpt><trkpt lat="43.1182295" lon="12.4131638"><ele>343.0</ele><time>2026-04-28T17:05:57.191Z</time></trkpt><trkpt lat="43.1182357" lon="12.4130539"><ele>346.66666666666663</ele><time>2026-04-28T17:06:00.16Z</time></trkpt><trkpt lat="43.118237" lon="12.4129336"><ele>350.3333333333333</ele><time>2026-04-28T17:06:03.17Z</time></trkpt><trkpt lat="43.1182359" lon="12.4128221"><ele>354.0</ele><time>2026-04-28T17:06:06.204Z</time></trkpt><trkpt lat="43.1182501" lon="12.4127097"><ele>357.6666666666667</ele><time>2026-04-28T17:06:09.186Z</time></trkpt><trkpt lat="43.1182499" lon="12.4125953"><ele>361.33333333333337</ele><time>2026-04-28T17:06:12.198Z</time></trkpt><trkpt lat="43.118251" lon="12.4124903"><ele>365.0</ele><time>2026-04-28T17:06:15.167Z</time></trkpt><trkpt lat="43.1182565" lon="12.4123918"><ele>365.00000000000006</ele><time>2026-04-28T17:06:18.133Z</time></trkpt><trkpt lat="43.1182623" lon="12.4122827"><ele>365.0</ele><time>2026-04-28T17:06:21.172Z</time></trkpt><trkpt lat="43.1182669" lon="12.4121835"><ele>365.0</ele><time>2026-04-28T17:06:24.178Z</time></trkpt><trkpt lat="43.1182708" lon="12.412085"><ele>365.0</ele><time>2026-04-28T17:06:27.159Z</time></trkpt><trkpt lat="43.1182711" lon="12.4119902"><ele>365.0</ele><time>2026-04-28T17:06:30.184Z</time></trkpt><trkpt lat="43.1182755" lon="12.411889"><ele>365.00000000000006</ele><time>2026-04-28T17:06:33.191Z</time></trkpt><trkpt lat="43.1182678" lon="12.4117932"><ele>365.0</ele><time>2026-04-28T17:06:36.168Z</time></trkpt><trkpt lat="43.1182484" lon="12.4116973"><ele>365.6666666666667</ele><time>2026-04-28T17:06:39.191Z</time></trkpt><trkpt lat="43.1182149" lon="12.4116104"><ele>366.33333333333337</ele><time>2026-04-28T17:06:42.175Z</time></trkpt><trkpt lat="43.1181698" lon="12.4115221"><ele>367.0</ele><time>2026-04-28T17:06:45.228Z</time></trkpt><trkpt lat="43.1181232" lon="12.4114436"><ele>367.6666666666667</ele><time>2026-04-28T17:06:48.216Z</time></trkpt><trkpt lat="43.1180738" lon="12.4113669"><ele>368.3333333333333</ele><time>2026-04-28T17:06:51.175Z</time></trkpt><trkpt lat="43.1180294" lon="12.4112867"><ele>369.0</ele><time>2026-04-28T17:06:54.198Z</time></trkpt><trkpt lat="43.1179782" lon="12.4112076"><ele>369.0</ele><time>2026-04-28T17:06:57.185Z</time></trkpt><trkpt lat="43.117913" lon="12.4111094"><ele>369.0</ele><time>2026-04-28T17:07:01.172Z</time></trkpt><trkpt lat="43.1178744" lon="12.4110309"><ele>369.0</ele><time>2026-04-28T17:07:04.172Z</time></trkpt><trkpt lat="43.1178307" lon="12.4109573"><ele>369.0</ele><time>2026-04-28T17:07:07.183Z</time></trkpt><trkpt lat="43.1177857" lon="12.4108766"><ele>369.0</ele><time>2026-04-28T17:07:10.182Z</time></trkpt><trkpt lat="43.1177366" lon="12.4108105"><ele>369.0</ele><time>2026-04-28T17:07:13.295Z</time></trkpt><trkpt lat="43.1176917" lon="12.4107385"><ele>369.0</ele><time>2026-04-28T17:07:16.183Z</time></trkpt><trkpt lat="43.1176413" lon="12.4106778"><ele>369.0</ele><time>2026-04-28T17:07:19.178Z</time></trkpt><trkpt lat="43.1175924" lon="12.4106086"><ele>369.0</ele><time>2026-04-28T17:07:22.203Z</time></trkpt><trkpt lat="43.1175493" lon="12.4105345"><ele>369.0</ele><time>2026-04-28T17:07:25.182Z</time></trkpt><trkpt lat="43.1175019" lon="12.4104736"><ele>369.0</ele><time>2026-04-28T17:07:28.179Z</time></trkpt><trkpt lat="43.1174412" lon="12.410384"><ele>369.0</ele><time>2026-04-28T17:07:32.176Z</time></trkpt><trkpt lat="43.1173941" lon="12.4103206"><ele>369.0</ele><time>2026-04-28T17:07:35.153Z</time></trkpt><trkpt lat="43.1173474" lon="12.41026"><ele>369.0</ele><time>2026-04-28T17:07:38.198Z</time></trkpt><trkpt lat="43.117291" lon="12.4102054"><ele>368.2857142857143</ele><time>2026-04-28T17:07:41.169Z</time></trkpt><trkpt lat="43.1172471" lon="12.4101352"><ele>367.57142857142856</ele><time>2026-04-28T17:07:44.186Z</time></trkpt><trkpt lat="43.1172167" lon="12.4100424"><ele>366.8571428571429</ele><time>2026-04-28T17:07:47.371Z</time></trkpt><trkpt lat="43.1171879" lon="12.4099644"><ele>366.1428571428571</ele><time>2026-04-28T17:07:50.186Z</time></trkpt><trkpt lat="43.1171746" lon="12.4098689"><ele>365.42857142857144</ele><time>2026-04-28T17:07:54.196Z</time></trkpt><trkpt lat="43.1171816" lon="12.4097687"><ele>364.7142857142857</ele><time>2026-04-28T17:07:59.173Z</time></trkpt><trkpt lat="43.117182" lon="12.4096703"><ele>364.0</ele><time>2026-04-28T17:08:03.16Z</time></trkpt><trkpt lat="43.1171897" lon="12.4095478"><ele>364.0</ele><time>2026-04-28T17:08:08.164Z</time></trkpt><trkpt lat="43.1172062" lon="12.4094555"><ele>364.0</ele><time>2026-04-28T17:08:12.188Z</time></trkpt><trkpt lat="43.1172133" lon="12.4093559"><ele>364.0</ele><time>2026-04-28T17:08:16.185Z</time></trkpt><trkpt lat="43.1172273" lon="12.4092554"><ele>364.0</ele><time>2026-04-28T17:08:20.19Z</time></trkpt><trkpt lat="43.1172351" lon="12.4091511"><ele>364.0</ele><time>2026-04-28T17:08:24.18Z</time></trkpt><trkpt lat="43.1172507" lon="12.4090458"><ele>364.0</ele><time>2026-04-28T17:08:28.171Z</time></trkpt><trkpt lat="43.1172668" lon="12.4089435"><ele>364.0</ele><time>2026-04-28T17:08:32.178Z</time></trkpt><trkpt lat="43.1172792" lon="12.4088441"><ele>364.0</ele><time>2026-04-28T17:08:36.246Z</time></trkpt><trkpt lat="43.117293" lon="12.4087515"><ele>364.0</ele><time>2026-04-28T17:08:40.177Z</time></trkpt><trkpt lat="43.1172961" lon="12.4086481"><ele>364.0</ele><time>2026-04-28T17:08:44.2Z</time></trkpt><trkpt lat="43.1173018" lon="12.4085486"><ele>364.0</ele><time>2026-04-28T17:08:48.176Z</time></trkpt><trkpt lat="43.1173085" lon="12.4084533"><ele>364.0</ele><time>2026-04-28T17:08:52.182Z</time></trkpt><trkpt lat="43.1173058" lon="12.4083619"><ele>364.0</ele><time>2026-04-28T17:08:56.216Z</time></trkpt><trkpt lat="43.1173248" lon="12.4082527"><ele>364.0</ele><time>2026-04-28T17:09:00.17Z</time></trkpt><trkpt lat="43.1173407" lon="12.4081691"><ele>364.0</ele><time>2026-04-28T17:09:03.192Z</time></trkpt><trkpt lat="43.1173503" lon="12.4080709"><ele>364.0</ele><time>2026-04-28T17:09:07.211Z</time></trkpt><trkpt lat="43.1173826" lon="12.4079683"><ele>364.0</ele><time>2026-04-28T17:09:11.173Z</time></trkpt><trkpt lat="43.1174076" lon="12.4078696"><ele>364.0</ele><time>2026-04-28T17:09:15.318Z</time></trkpt><trkpt lat="43.1174337" lon="12.4077651"><ele>364.0</ele><time>2026-04-28T17:09:19.277Z</time></trkpt><trkpt lat="43.1174611" lon="12.4076676"><ele>364.0</ele><time>2026-04-28T17:09:23.268Z</time></trkpt><trkpt lat="43.1174887" lon="12.4075812"><ele>368.0</ele><time>2026-04-28T17:09:27.187Z</time></trkpt><trkpt lat="43.1175181" lon="12.4074745"><ele>372.0</ele><time>2026-04-28T17:09:31.168Z</time></trkpt><trkpt lat="43.1175417" lon="12.4073909"><ele>376.0</ele><time>2026-04-28T17:09:34.27Z</time></trkpt><trkpt lat="43.1175747" lon="12.4072863"><ele>380.0</ele><time>2026-04-28T17:09:38.208Z</time></trkpt><trkpt lat="43.1175929" lon="12.4071959"><ele>384.00000000000006</ele><time>2026-04-28T17:09:41.304Z</time></trkpt><trkpt lat="43.1176166" lon="12.4070861"><ele>388.0</ele><time>2026-04-28T17:09:45.166Z</time></trkpt><trkpt lat="43.1176404" lon="12.4069955"><ele>388.00000000000006</ele><time>2026-04-28T17:09:48.242Z</time></trkpt><trkpt lat="43.1176627" lon="12.4068854"><ele>388.0</ele><time>2026-04-28T17:09:52.163Z</time></trkpt><trkpt lat="43.1176873" lon="12.4068019"><ele>388.0</ele><time>2026-04-28T17:09:55.146Z</time></trkpt><trkpt lat="43.1177145" lon="12.4066954"><ele>388.0</ele><time>2026-04-28T17:09:59.17Z</time></trkpt><trkpt lat="43.1177384" lon="12.4066083"><ele>388.00000000000006</ele><time>2026-04-28T17:10:02.215Z</time></trkpt><trkpt lat="43.117761" lon="12.4064974"><ele>388.0</ele><time>2026-04-28T17:10:06.188Z</time></trkpt><trkpt lat="43.1177877" lon="12.4063906"><ele>387.33333333333337</ele><time>2026-04-28T17:10:10.174Z</time></trkpt><trkpt lat="43.1178108" lon="12.4063076"><ele>386.6666666666667</ele><time>2026-04-28T17:10:13.172Z</time></trkpt><trkpt lat="43.117837" lon="12.4062069"><ele>386.0</ele><time>2026-04-28T17:10:17.169Z</time></trkpt><trkpt lat="43.1178639" lon="12.4060933"><ele>385.33333333333337</ele><time>2026-04-28T17:10:21.252Z</time></trkpt><trkpt lat="43.1178888" lon="12.4059839"><ele>384.6666666666667</ele><time>2026-04-28T17:10:25.165Z</time></trkpt><trkpt lat="43.1179107" lon="12.4059016"><ele>384.0</ele><time>2026-04-28T17:10:28.276Z</time></trkpt><trkpt lat="43.117942" lon="12.4058075"><ele>383.99999999999994</ele><time>2026-04-28T17:10:32.158Z</time></trkpt><trkpt lat="43.1179624" lon="12.4057191"><ele>384.0</ele><time>2026-04-28T17:10:35.166Z</time></trkpt><trkpt lat="43.1179884" lon="12.4056297"><ele>384.0</ele><time>2026-04-28T17:10:38.264Z</time></trkpt><trkpt lat="43.1180102" lon="12.4055465"><ele>384.0</ele><time>2026-04-28T17:10:41.188Z</time></trkpt><trkpt lat="43.1180275" lon="12.4054634"><ele>384.0</ele><time>2026-04-28T17:10:44.183Z</time></trkpt><trkpt lat="43.1180536" lon="12.4053566"><ele>383.99999999999994</ele><time>2026-04-28T17:10:48.161Z</time></trkpt><trkpt lat="43.1180794" lon="12.4052532"><ele>384.0</ele><time>2026-04-28T17:10:52.148Z</time></trkpt><trkpt lat="43.118108" lon="12.4051503"><ele>383.6666666666667</ele><time>2026-04-28T17:10:56.142Z</time></trkpt><trkpt lat="43.1181396" lon="12.4050161"><ele>383.3333333333333</ele><time>2026-04-28T17:11:01.145Z</time></trkpt><trkpt lat="43.1181584" lon="12.4049267"><ele>383.0</ele><time>2026-04-28T17:11:04.16Z</time></trkpt><trkpt lat="43.1181931" lon="12.4048305"><ele>382.66666666666663</ele><time>2026-04-28T17:11:08.172Z</time></trkpt><trkpt lat="43.1182239" lon="12.4047322"><ele>382.3333333333333</ele><time>2026-04-28T17:11:12.177Z</time></trkpt><trkpt lat="43.1182479" lon="12.4046296"><ele>382.0</ele><time>2026-04-28T17:11:16.153Z</time></trkpt><trkpt lat="43.1182866" lon="12.4045325"><ele>385.66666666666663</ele><time>2026-04-28T17:11:20.136Z</time></trkpt><trkpt lat="43.1183075" lon="12.4044502"><ele>389.3333333333333</ele><time>2026-04-28T17:11:23.164Z</time></trkpt><trkpt lat="43.1183426" lon="12.4043415"><ele>393.0</ele><time>2026-04-28T17:11:27.144Z</time></trkpt><trkpt lat="43.1183774" lon="12.4042611"><ele>396.66666666666663</ele><time>2026-04-28T17:11:30.143Z</time></trkpt><trkpt lat="43.118415" lon="12.4041592"><ele>400.3333333333333</ele><time>2026-04-28T17:11:34.123Z</time></trkpt><trkpt lat="43.118444" lon="12.4040804"><ele>404.0</ele><time>2026-04-28T17:11:37.142Z</time></trkpt><trkpt lat="43.1184926" lon="12.4039876"><ele>404.0</ele><time>2026-04-28T17:11:41.154Z</time></trkpt><trkpt lat="43.1185253" lon="12.4039076"><ele>404.0</ele><time>2026-04-28T17:11:44.281Z</time></trkpt><trkpt lat="43.1185525" lon="12.4038296"><ele>404.0</ele><time>2026-04-28T17:11:47.243Z</time></trkpt><trkpt lat="43.1185946" lon="12.4037328"><ele>404.0</ele><time>2026-04-28T17:11:51.14Z</time></trkpt><trkpt lat="43.1186389" lon="12.4036675"><ele>404.0</ele><time>2026-04-28T17:11:54.247Z</time></trkpt><trkpt lat="43.1186727" lon="12.4035636"><ele>404.0</ele><time>2026-04-28T17:11:58.129Z</time></trkpt><trkpt lat="43.118712" lon="12.403463"><ele>404.0</ele><time>2026-04-28T17:12:02.125Z</time></trkpt><trkpt lat="43.1187401" lon="12.4033496"><ele>403.3333333333333</ele><time>2026-04-28T17:12:06.152Z</time></trkpt><trkpt lat="43.118773" lon="12.403254"><ele>402.66666666666663</ele><time>2026-04-28T17:12:09.189Z</time></trkpt><trkpt lat="43.1188204" lon="12.4031777"><ele>402.0</ele><time>2026-04-28T17:12:12.163Z</time></trkpt><trkpt lat="43.1188549" lon="12.403086"><ele>401.33333333333337</ele><time>2026-04-28T17:12:15.128Z</time></trkpt><trkpt lat="43.118897" lon="12.4029971"><ele>400.6666666666667</ele><time>2026-04-28T17:12:18.147Z</time></trkpt><trkpt lat="43.1189261" lon="12.4029043"><ele>400.0</ele><time>2026-04-28T17:12:21.149Z</time></trkpt><trkpt lat="43.1189566" lon="12.4027984"><ele>399.33333333333337</ele><time>2026-04-28T17:12:24.188Z</time></trkpt><trkpt lat="43.1189899" lon="12.4026806"><ele>398.6666666666667</ele><time>2026-04-28T17:12:27.163Z</time></trkpt><trkpt lat="43.119008" lon="12.4025975"><ele>398.0</ele><time>2026-04-28T17:12:29.139Z</time></trkpt><trkpt lat="43.1190226" lon="12.4025086"><ele>397.33333333333337</ele><time>2026-04-28T17:12:31.157Z</time></trkpt><trkpt lat="43.1190263" lon="12.4024176"><ele>396.6666666666667</ele><time>2026-04-28T17:12:33.167Z</time></trkpt><trkpt lat="43.119042" lon="12.4022871"><ele>396.0</ele><time>2026-04-28T17:12:36.17Z</time></trkpt><trkpt lat="43.1190494" lon="12.4021971"><ele>397.3333333333333</ele><time>2026-04-28T17:12:38.163Z</time></trkpt><trkpt lat="43.1190599" lon="12.402111"><ele>398.66666666666663</ele><time>2026-04-28T17:12:40.166Z</time></trkpt><trkpt lat="43.119049" lon="12.4019807"><ele>400.0</ele><time>2026-04-28T17:12:43.231Z</time></trkpt><trkpt lat="43.1190607" lon="12.4018664"><ele>401.3333333333333</ele><time>2026-04-28T17:12:46.112Z</time></trkpt><trkpt lat="43.1190639" lon="12.4017365"><ele>402.66666666666663</ele><time>2026-04-28T17:12:49.182Z</time></trkpt><trkpt lat="43.1190687" lon="12.4016184"><ele>404.0</ele><time>2026-04-28T17:12:52.136Z</time></trkpt><trkpt lat="43.1190658" lon="12.4014942"><ele>403.99999999999994</ele><time>2026-04-28T17:12:55.17Z</time></trkpt><trkpt lat="43.1190674" lon="12.401372"><ele>404.0</ele><time>2026-04-28T17:12:58.18Z</time></trkpt><trkpt lat="43.1190714" lon="12.401259"><ele>404.0</ele><time>2026-04-28T17:13:01.183Z</time></trkpt><trkpt lat="43.1190775" lon="12.4011379"><ele>404.0</ele><time>2026-04-28T17:13:04.175Z</time></trkpt><trkpt lat="43.1190772" lon="12.4010094"><ele>403.99999999999994</ele><time>2026-04-28T17:13:07.174Z</time></trkpt><trkpt lat="43.1190796" lon="12.4008802"><ele>404.0</ele><time>2026-04-28T17:13:10.161Z</time></trkpt><trkpt lat="43.1190813" lon="12.4007559"><ele>405.4</ele><time>2026-04-28T17:13:13.246Z</time></trkpt><trkpt lat="43.1190827" lon="12.4006503"><ele>406.79999999999995</ele><time>2026-04-28T17:13:16.148Z</time></trkpt><trkpt lat="43.119091" lon="12.4004966"><ele>408.20000000000005</ele><time>2026-04-28T17:13:20.177Z</time></trkpt><trkpt lat="43.1190946" lon="12.4003448"><ele>409.6</ele><time>2026-04-28T17:13:24.167Z</time></trkpt><trkpt lat="43.1190889" lon="12.4002311"><ele>411.0</ele><time>2026-04-28T17:13:27.164Z</time></trkpt><trkpt lat="43.1190815" lon="12.4001242"><ele>411.0</ele><time>2026-04-28T17:13:30.139Z</time></trkpt><trkpt lat="43.1190945" lon="12.40001"><ele>411.0</ele><time>2026-04-28T17:13:33.151Z</time></trkpt><trkpt lat="43.119092" lon="12.3998982"><ele>411.0</ele><time>2026-04-28T17:13:36.132Z</time></trkpt><trkpt lat="43.1190963" lon="12.3997874"><ele>411.0</ele><time>2026-04-28T17:13:39.14Z</time></trkpt><trkpt lat="43.1190942" lon="12.3996918"><ele>411.0</ele><time>2026-04-28T17:13:42.15Z</time></trkpt><trkpt lat="43.119096" lon="12.3995862"><ele>411.0</ele><time>2026-04-28T17:13:45.158Z</time></trkpt><trkpt lat="43.1190981" lon="12.3994874"><ele>411.42857142857144</ele><time>2026-04-28T17:13:48.162Z</time></trkpt><trkpt lat="43.1190981" lon="12.3993895"><ele>411.85714285714283</ele><time>2026-04-28T17:13:51.161Z</time></trkpt><trkpt lat="43.119085" lon="12.399292"><ele>412.28571428571433</ele><time>2026-04-28T17:13:54.141Z</time></trkpt><trkpt lat="43.1190626" lon="12.399193"><ele>412.7142857142857</ele><time>2026-04-28T17:13:57.138Z</time></trkpt><trkpt lat="43.1190568" lon="12.3990973"><ele>413.14285714285717</ele><time>2026-04-28T17:14:00.255Z</time></trkpt><trkpt lat="43.1190355" lon="12.39901"><ele>413.5714285714286</ele><time>2026-04-28T17:14:03.133Z</time></trkpt><trkpt lat="43.1190073" lon="12.3989157"><ele>414.0</ele><time>2026-04-28T17:14:06.169Z</time></trkpt><trkpt lat="43.1189949" lon="12.3988252"><ele>415.42857142857144</ele><time>2026-04-28T17:14:09.187Z</time></trkpt><trkpt lat="43.1189872" lon="12.3987113"><ele>416.8571428571429</ele><time>2026-04-28T17:14:13.18Z</time></trkpt><trkpt lat="43.1189383" lon="12.3986233"><ele>418.28571428571433</ele><time>2026-04-28T17:14:17.182Z</time></trkpt><trkpt lat="43.1188895" lon="12.3985658"><ele>419.7142857142857</ele><time>2026-04-28T17:14:20.16Z</time></trkpt><trkpt lat="43.1188547" lon="12.3984904"><ele>421.1428571428571</ele><time>2026-04-28T17:14:24.23Z</time></trkpt><trkpt lat="43.1187869" lon="12.3985441"><ele>422.5714285714286</ele><time>2026-04-28T17:14:29.187Z</time></trkpt><trkpt lat="43.1187421" lon="12.3986229"><ele>424.0</ele><time>2026-04-28T17:14:32.146Z</time></trkpt><trkpt lat="43.1186874" lon="12.398698"><ele>424.00000000000006</ele><time>2026-04-28T17:14:35.277Z</time></trkpt><trkpt lat="43.118643" lon="12.3987888"><ele>424.0</ele><time>2026-04-28T17:14:38.177Z</time></trkpt><trkpt lat="43.1186016" lon="12.3988721"><ele>424.0</ele><time>2026-04-28T17:14:41.165Z</time></trkpt><trkpt lat="43.1185556" lon="12.3989732"><ele>424.0</ele><time>2026-04-28T17:14:44.284Z</time></trkpt><trkpt lat="43.1185087" lon="12.3990645"><ele>424.00000000000006</ele><time>2026-04-28T17:14:47.164Z</time></trkpt><trkpt lat="43.1184729" lon="12.3991378"><ele>424.0</ele><time>2026-04-28T17:14:49.18Z</time></trkpt><trkpt lat="43.118418" lon="12.3992248"><ele>423.83333333333337</ele><time>2026-04-28T17:14:52.151Z</time></trkpt><trkpt lat="43.1183567" lon="12.3993125"><ele>423.6666666666667</ele><time>2026-04-28T17:14:55.246Z</time></trkpt><trkpt lat="43.1183084" lon="12.3994228"><ele>423.5</ele><time>2026-04-28T17:14:58.159Z</time></trkpt><trkpt lat="43.118247" lon="12.3995089"><ele>423.33333333333337</ele><time>2026-04-28T17:15:01.141Z</time></trkpt><trkpt lat="43.1182154" lon="12.3996208"><ele>423.1666666666667</ele><time>2026-04-28T17:15:04.18Z</time></trkpt><trkpt lat="43.1181688" lon="12.3997144"><ele>423.0</ele><time>2026-04-28T17:15:07.167Z</time></trkpt><trkpt lat="43.1181168" lon="12.3997678"><ele>425.6666666666667</ele><time>2026-04-28T17:15:09.169Z</time></trkpt><trkpt lat="43.1180786" lon="12.3998735"><ele>428.33333333333337</ele><time>2026-04-28T17:15:12.152Z</time></trkpt><trkpt lat="43.1180489" lon="12.3999542"><ele>431.0</ele><time>2026-04-28T17:15:15.153Z</time></trkpt><trkpt lat="43.1180303" lon="12.4000707"><ele>433.6666666666667</ele><time>2026-04-28T17:15:18.192Z</time></trkpt><trkpt lat="43.1179867" lon="12.4001756"><ele>436.33333333333337</ele><time>2026-04-28T17:15:21.141Z</time></trkpt><trkpt lat="43.1179655" lon="12.4002908"><ele>439.0</ele><time>2026-04-28T17:15:24.186Z</time></trkpt><trkpt lat="43.1179631" lon="12.4003792"><ele>439.00000000000006</ele><time>2026-04-28T17:15:26.143Z</time></trkpt><trkpt lat="43.1179403" lon="12.4004908"><ele>439.0</ele><time>2026-04-28T17:15:29.132Z</time></trkpt><trkpt lat="43.1179118" lon="12.4005834"><ele>439.0</ele><time>2026-04-28T17:15:32.175Z</time></trkpt><trkpt lat="43.1178962" lon="12.4006882"><ele>439.0</ele><time>2026-04-28T17:15:35.153Z</time></trkpt><trkpt lat="43.1178406" lon="12.4008215"><ele>439.00000000000006</ele><time>2026-04-28T17:15:39.194Z</time></trkpt><trkpt lat="43.1177989" lon="12.4009125"><ele>439.0</ele><time>2026-04-28T17:15:42.159Z</time></trkpt><trkpt lat="43.1177347" lon="12.4009742"><ele>439.1666666666667</ele><time>2026-04-28T17:15:45.134Z</time></trkpt><trkpt lat="43.1176804" lon="12.4010641"><ele>439.33333333333337</ele><time>2026-04-28T17:15:48.166Z</time></trkpt><trkpt lat="43.1176155" lon="12.4011323"><ele>439.5</ele><time>2026-04-28T17:15:51.175Z</time></trkpt><trkpt lat="43.1175603" lon="12.4012124"><ele>439.66666666666663</ele><time>2026-04-28T17:15:54.193Z</time></trkpt><trkpt lat="43.117496" lon="12.4012798"><ele>439.8333333333333</ele><time>2026-04-28T17:15:57.151Z</time></trkpt><trkpt lat="43.1174552" lon="12.4013719"><ele>440.0</ele><time>2026-04-28T17:16:00.151Z</time></trkpt><trkpt lat="43.1173895" lon="12.4014285"><ele>437.99999999999994</ele><time>2026-04-28T17:16:03.168Z</time></trkpt><trkpt lat="43.1173235" lon="12.401495"><ele>436.0</ele><time>2026-04-28T17:16:07.158Z</time></trkpt><trkpt lat="43.1172733" lon="12.4015474"><ele>434.0</ele><time>2026-04-28T17:16:10.169Z</time></trkpt><trkpt lat="43.1172213" lon="12.4016335"><ele>432.0</ele><time>2026-04-28T17:16:14.194Z</time></trkpt><trkpt lat="43.1171633" lon="12.4016779"><ele>430.0</ele><time>2026-04-28T17:16:17.157Z</time></trkpt><trkpt lat="43.1170934" lon="12.4017063"><ele>427.99999999999994</ele><time>2026-04-28T17:16:20.148Z</time></trkpt><trkpt lat="43.1170137" lon="12.4017025"><ele>426.0</ele><time>2026-04-28T17:16:24.186Z</time></trkpt><trkpt lat="43.1169493" lon="12.40166"><ele>425.99999999999994</ele><time>2026-04-28T17:16:27.152Z</time></trkpt><trkpt lat="43.1168902" lon="12.4016104"><ele>426.0</ele><time>2026-04-28T17:16:30.172Z</time></trkpt><trkpt lat="43.1168255" lon="12.4015325"><ele>426.0</ele><time>2026-04-28T17:16:34.178Z</time></trkpt><trkpt lat="43.1167577" lon="12.4014927"><ele>426.0</ele><time>2026-04-28T17:16:37.141Z</time></trkpt><trkpt lat="43.1167118" lon="12.4014152"><ele>426.0</ele><time>2026-04-28T17:16:40.196Z</time></trkpt><trkpt lat="43.1166432" lon="12.4013743"><ele>425.99999999999994</ele><time>2026-04-28T17:16:43.196Z</time></trkpt><trkpt lat="43.1165865" lon="12.4013217"><ele>426.0</ele><time>2026-04-28T17:16:46.152Z</time></trkpt><trkpt lat="43.1165346" lon="12.4012662"><ele>426.57142857142856</ele><time>2026-04-28T17:16:49.173Z</time></trkpt><trkpt lat="43.1164765" lon="12.4012062"><ele>427.1428571428571</ele><time>2026-04-28T17:16:52.172Z</time></trkpt><trkpt lat="43.1164206" lon="12.4011459"><ele>427.71428571428567</ele><time>2026-04-28T17:16:55.169Z</time></trkpt><trkpt lat="43.1163648" lon="12.4010965"><ele>428.2857142857143</ele><time>2026-04-28T17:16:58.176Z</time></trkpt><trkpt lat="43.1163018" lon="12.401053"><ele>428.8571428571429</ele><time>2026-04-28T17:17:01.165Z</time></trkpt><trkpt lat="43.1162568" lon="12.4009792"><ele>429.4285714285714</ele><time>2026-04-28T17:17:04.155Z</time></trkpt><trkpt lat="43.1162087" lon="12.4009051"><ele>430.0</ele><time>2026-04-28T17:17:07.172Z</time></trkpt><trkpt lat="43.1161538" lon="12.4008457"><ele>430.0</ele><time>2026-04-28T17:17:10.14Z</time></trkpt><trkpt lat="43.1161054" lon="12.4007827"><ele>430.0</ele><time>2026-04-28T17:17:13.167Z</time></trkpt><trkpt lat="43.1160613" lon="12.4007211"><ele>430.0</ele><time>2026-04-28T17:17:16.14Z</time></trkpt><trkpt lat="43.1160137" lon="12.400653"><ele>430.0</ele><time>2026-04-28T17:17:19.152Z</time></trkpt><trkpt lat="43.1159704" lon="12.4005789"><ele>430.0</ele><time>2026-04-28T17:17:22.174Z</time></trkpt><trkpt lat="43.1159254" lon="12.4005125"><ele>430.0</ele><time>2026-04-28T17:17:25.154Z</time></trkpt><trkpt lat="43.115887" lon="12.4004424"><ele>430.0</ele><time>2026-04-28T17:17:28.149Z</time></trkpt><trkpt lat="43.1158464" lon="12.4003688"><ele>430.57142857142856</ele><time>2026-04-28T17:17:31.184Z</time></trkpt><trkpt lat="43.1158132" lon="12.4002909"><ele>431.14285714285717</ele><time>2026-04-28T17:17:34.202Z</time></trkpt><trkpt lat="43.1157693" lon="12.4001882"><ele>431.7142857142857</ele><time>2026-04-28T17:17:38.17Z</time></trkpt><trkpt lat="43.1157272" lon="12.4001186"><ele>432.2857142857143</ele><time>2026-04-28T17:17:41.196Z</time></trkpt><trkpt lat="43.1156844" lon="12.4000436"><ele>432.8571428571429</ele><time>2026-04-28T17:17:44.169Z</time></trkpt><trkpt lat="43.1156537" lon="12.3999514"><ele>433.42857142857144</ele><time>2026-04-28T17:17:47.164Z</time></trkpt><trkpt lat="43.1155987" lon="12.399891"><ele>434.0</ele><time>2026-04-28T17:17:50.187Z</time></trkpt><trkpt lat="43.1155369" lon="12.3998164"><ele>434.0</ele><time>2026-04-28T17:17:54.165Z</time></trkpt><trkpt lat="43.1154722" lon="12.3997742"><ele>434.0</ele><time>2026-04-28T17:17:57.183Z</time></trkpt><trkpt lat="43.1154031" lon="12.3997423"><ele>434.0</ele><time>2026-04-28T17:18:02.138Z</time></trkpt><trkpt lat="43.11532" lon="12.3997327"><ele>434.0</ele><time>2026-04-28T17:18:05.174Z</time></trkpt><trkpt lat="43.1152581" lon="12.399685"><ele>434.0</ele><time>2026-04-28T17:18:08.194Z</time></trkpt><trkpt lat="43.1151972" lon="12.3996564"><ele>434.0</ele><time>2026-04-28T17:18:11.176Z</time></trkpt><trkpt lat="43.1151294" lon="12.3996604"><ele>434.0</ele><time>2026-04-28T17:18:15.163Z</time></trkpt><trkpt lat="43.1150742" lon="12.3996157"><ele>434.0</ele><time>2026-04-28T17:18:19.185Z</time></trkpt><trkpt lat="43.1150056" lon="12.3996284"><ele>434.0</ele><time>2026-04-28T17:18:23.169Z</time></trkpt><trkpt lat="43.114974" lon="12.3997195"><ele>434.0</ele><time>2026-04-28T17:18:26.159Z</time></trkpt><trkpt lat="43.1149391" lon="12.3997967"><ele>434.0</ele><time>2026-04-28T17:18:29.195Z</time></trkpt><trkpt lat="43.114885" lon="12.3998667"><ele>434.0</ele><time>2026-04-28T17:18:34.186Z</time></trkpt><trkpt lat="43.1148361" lon="12.3999335"><ele>434.0</ele><time>2026-04-28T17:18:37.159Z</time></trkpt><trkpt lat="43.1147743" lon="12.4000095"><ele>434.0</ele><time>2026-04-28T17:18:40.151Z</time></trkpt><trkpt lat="43.1147387" lon="12.400085"><ele>434.99999999999994</ele><time>2026-04-28T17:18:42.141Z</time></trkpt><trkpt lat="43.1146966" lon="12.4001614"><ele>436.0</ele><time>2026-04-28T17:18:44.168Z</time></trkpt><trkpt lat="43.1146559" lon="12.4002425"><ele>437.0</ele><time>2026-04-28T17:18:46.125Z</time></trkpt><trkpt lat="43.1146134" lon="12.4003394"><ele>438.0</ele><time>2026-04-28T17:18:48.144Z</time></trkpt><trkpt lat="43.1145754" lon="12.4004542"><ele>438.99999999999994</ele><time>2026-04-28T17:18:50.179Z</time></trkpt><trkpt lat="43.1145348" lon="12.4005531"><ele>440.0</ele><time>2026-04-28T17:18:52.145Z</time></trkpt><trkpt lat="43.114492" lon="12.4006656"><ele>440.2</ele><time>2026-04-28T17:18:54.134Z</time></trkpt><trkpt lat="43.1144508" lon="12.4007848"><ele>440.4</ele><time>2026-04-28T17:18:56.143Z</time></trkpt><trkpt lat="43.1143943" lon="12.4009228"><ele>440.6</ele><time>2026-04-28T17:18:58.273Z</time></trkpt><trkpt lat="43.1143234" lon="12.4010458"><ele>440.8</ele><time>2026-04-28T17:19:00.15Z</time></trkpt><trkpt lat="43.1142692" lon="12.4011641"><ele>441.0</ele><time>2026-04-28T17:19:02.143Z</time></trkpt><trkpt lat="43.1142344" lon="12.4012946"><ele>440.20000000000005</ele><time>2026-04-28T17:19:04.153Z</time></trkpt><trkpt lat="43.1142174" lon="12.4014141"><ele>439.40000000000003</ele><time>2026-04-28T17:19:06.115Z</time></trkpt><trkpt lat="43.1141971" lon="12.4015363"><ele>438.6</ele><time>2026-04-28T17:19:08.145Z</time></trkpt><trkpt lat="43.1142034" lon="12.4016646"><ele>437.8</ele><time>2026-04-28T17:19:10.193Z</time></trkpt><trkpt lat="43.1142014" lon="12.4017894"><ele>437.0</ele><time>2026-04-28T17:19:12.151Z</time></trkpt><trkpt lat="43.1142019" lon="12.4019184"><ele>437.0</ele><time>2026-04-28T17:19:14.172Z</time></trkpt><trkpt lat="43.1142152" lon="12.4021048"><ele>437.0</ele><time>2026-04-28T17:19:17.159Z</time></trkpt><trkpt lat="43.1142504" lon="12.4022323"><ele>437.0</ele><time>2026-04-28T17:19:19.145Z</time></trkpt><trkpt lat="43.1142903" lon="12.4023731"><ele>437.0</ele><time>2026-04-28T17:19:21.155Z</time></trkpt><trkpt lat="43.114334" lon="12.4025261"><ele>436.8333333333333</ele><time>2026-04-28T17:19:23.141Z</time></trkpt><trkpt lat="43.1143559" lon="12.4026085"><ele>436.66666666666663</ele><time>2026-04-28T17:19:24.185Z</time></trkpt><trkpt lat="43.1144021" lon="12.4027677"><ele>436.5</ele><time>2026-04-28T17:19:26.175Z</time></trkpt><trkpt lat="43.1144148" lon="12.4028572"><ele>436.33333333333337</ele><time>2026-04-28T17:19:27.161Z</time></trkpt><trkpt lat="43.1144219" lon="12.4029548"><ele>436.1666666666667</ele><time>2026-04-28T17:19:28.185Z</time></trkpt><trkpt lat="43.1144294" lon="12.4030494"><ele>436.0</ele><time>2026-04-28T17:19:29.16Z</time></trkpt><trkpt lat="43.1144272" lon="12.4031447"><ele>435.6666666666667</ele><time>2026-04-28T17:19:30.136Z</time></trkpt><trkpt lat="43.1144153" lon="12.4032517"><ele>435.33333333333337</ele><time>2026-04-28T17:19:31.18Z</time></trkpt><trkpt lat="43.1144017" lon="12.4033533"><ele>435.0</ele><time>2026-04-28T17:19:32.177Z</time></trkpt><trkpt lat="43.114387" lon="12.403457"><ele>434.66666666666663</ele><time>2026-04-28T17:19:33.159Z</time></trkpt><trkpt lat="43.1143745" lon="12.4035648"><ele>434.3333333333333</ele><time>2026-04-28T17:19:34.169Z</time></trkpt><trkpt lat="43.1143595" lon="12.4036709"><ele>434.0</ele><time>2026-04-28T17:19:35.175Z</time></trkpt><trkpt lat="43.1143406" lon="12.4037764"><ele>432.8333333333333</ele><time>2026-04-28T17:19:36.152Z</time></trkpt><trkpt lat="43.114327" lon="12.40389"><ele>431.66666666666663</ele><time>2026-04-28T17:19:37.199Z</time></trkpt><trkpt lat="43.1143152" lon="12.4039935"><ele>430.5</ele><time>2026-04-28T17:19:38.15Z</time></trkpt><trkpt lat="43.1143057" lon="12.4041061"><ele>429.33333333333337</ele><time>2026-04-28T17:19:39.172Z</time></trkpt><trkpt lat="43.1142679" lon="12.4041997"><ele>428.1666666666667</ele><time>2026-04-28T17:19:40.172Z</time></trkpt><trkpt lat="43.1142066" lon="12.4042653"><ele>427.0</ele><time>2026-04-28T17:19:41.141Z</time></trkpt><trkpt lat="43.1141248" lon="12.4043117"><ele>424.40000000000003</ele><time>2026-04-28T17:19:42.187Z</time></trkpt><trkpt lat="43.1140395" lon="12.404318"><ele>421.80000000000007</ele><time>2026-04-28T17:19:43.152Z</time></trkpt><trkpt lat="43.1139445" lon="12.4042803"><ele>419.2</ele><time>2026-04-28T17:19:44.184Z</time></trkpt><trkpt lat="43.1138638" lon="12.4042317"><ele>416.6</ele><time>2026-04-28T17:19:45.171Z</time></trkpt><trkpt lat="43.1137846" lon="12.4041531"><ele>414.0</ele><time>2026-04-28T17:19:46.171Z</time></trkpt><trkpt lat="43.1137167" lon="12.4040718"><ele>414.0</ele><time>2026-04-28T17:19:47.154Z</time></trkpt><trkpt lat="43.1136453" lon="12.4039905"><ele>414.0</ele><time>2026-04-28T17:19:48.179Z</time></trkpt><trkpt lat="43.1135683" lon="12.4039283"><ele>414.0</ele><time>2026-04-28T17:19:49.181Z</time></trkpt><trkpt lat="43.1134915" lon="12.4038433"><ele>414.0</ele><time>2026-04-28T17:19:50.196Z</time></trkpt><trkpt lat="43.1134289" lon="12.4037613"><ele>414.0</ele><time>2026-04-28T17:19:51.138Z</time></trkpt><trkpt lat="43.1133566" lon="12.4036858"><ele>413.2</ele><time>2026-04-28T17:19:52.151Z</time></trkpt><trkpt lat="43.1132795" lon="12.4036043"><ele>412.4</ele><time>2026-04-28T17:19:53.172Z</time></trkpt><trkpt lat="43.1132122" lon="12.4035108"><ele>411.6</ele><time>2026-04-28T17:19:54.143Z</time></trkpt><trkpt lat="43.113148" lon="12.4034086"><ele>410.8</ele><time>2026-04-28T17:19:55.127Z</time></trkpt><trkpt lat="43.1130792" lon="12.4033074"><ele>410.0</ele><time>2026-04-28T17:19:56.146Z</time></trkpt><trkpt lat="43.1130149" lon="12.4032061"><ele>410.0</ele><time>2026-04-28T17:19:57.143Z</time></trkpt><trkpt lat="43.1129466" lon="12.4031079"><ele>410.0</ele><time>2026-04-28T17:19:58.155Z</time></trkpt><trkpt lat="43.1128922" lon="12.4030006"><ele>410.0</ele><time>2026-04-28T17:19:59.152Z</time></trkpt><trkpt lat="43.1128694" lon="12.4028726"><ele>410.0</ele><time>2026-04-28T17:20:00.181Z</time></trkpt><trkpt lat="43.1128523" lon="12.4027293"><ele>410.0</ele><time>2026-04-28T17:20:01.164Z</time></trkpt><trkpt lat="43.1128374" lon="12.4025638"><ele>410.0</ele><time>2026-04-28T17:20:02.385Z</time></trkpt><trkpt lat="43.1127941" lon="12.4023269"><ele>410.0</ele><time>2026-04-28T17:20:04.148Z</time></trkpt><trkpt lat="43.1127825" lon="12.4022095"><ele>410.0</ele><time>2026-04-28T17:20:05.152Z</time></trkpt><trkpt lat="43.1127693" lon="12.4021155"><ele>410.0</ele><time>2026-04-28T17:20:06.15Z</time></trkpt><trkpt lat="43.1127418" lon="12.4020272"><ele>410.0</ele><time>2026-04-28T17:20:07.157Z</time></trkpt><trkpt lat="43.1126911" lon="12.4019528"><ele>410.0</ele><time>2026-04-28T17:20:08.151Z</time></trkpt><trkpt lat="43.112618" lon="12.4019392"><ele>410.0</ele><time>2026-04-28T17:20:09.371Z</time></trkpt><trkpt lat="43.1124952" lon="12.4021297"><ele>410.0</ele><time>2026-04-28T17:20:11.161Z</time></trkpt><trkpt lat="43.1124715" lon="12.4022603"><ele>410.0</ele><time>2026-04-28T17:20:12.18Z</time></trkpt><trkpt lat="43.1124479" lon="12.4023961"><ele>407.2</ele><time>2026-04-28T17:20:13.172Z</time></trkpt><trkpt lat="43.1124063" lon="12.4025046"><ele>404.4</ele><time>2026-04-28T17:20:14.152Z</time></trkpt><trkpt lat="43.1123608" lon="12.4026215"><ele>401.6</ele><time>2026-04-28T17:20:15.152Z</time></trkpt><trkpt lat="43.1123178" lon="12.4027479"><ele>398.8</ele><time>2026-04-28T17:20:16.14Z</time></trkpt><trkpt lat="43.1122914" lon="12.402874"><ele>396.0</ele><time>2026-04-28T17:20:17.172Z</time></trkpt><trkpt lat="43.1122639" lon="12.4029954"><ele>396.6</ele><time>2026-04-28T17:20:18.131Z</time></trkpt><trkpt lat="43.1122362" lon="12.4031153"><ele>397.20000000000005</ele><time>2026-04-28T17:20:19.16Z</time></trkpt><trkpt lat="43.1122093" lon="12.4032226"><ele>397.79999999999995</ele><time>2026-04-28T17:20:20.15Z</time></trkpt><trkpt lat="43.1121762" lon="12.4033347"><ele>398.4</ele><time>2026-04-28T17:20:21.147Z</time></trkpt><trkpt lat="43.1121439" lon="12.4034683"><ele>399.0</ele><time>2026-04-28T17:20:22.252Z</time></trkpt><trkpt lat="43.1121171" lon="12.4035814"><ele>399.0</ele><time>2026-04-28T17:20:23.152Z</time></trkpt><trkpt lat="43.112084" lon="12.4037288"><ele>399.0</ele><time>2026-04-28T17:20:24.274Z</time></trkpt><trkpt lat="43.1120126" lon="12.4039738"><ele>399.0</ele><time>2026-04-28T17:20:26.17Z</time></trkpt><trkpt lat="43.1119825" lon="12.4041023"><ele>399.0</ele><time>2026-04-28T17:20:27.203Z</time></trkpt><trkpt lat="43.1119501" lon="12.4042301"><ele>398.2</ele><time>2026-04-28T17:20:28.149Z</time></trkpt><trkpt lat="43.1119179" lon="12.4043731"><ele>397.4</ele><time>2026-04-28T17:20:29.154Z</time></trkpt><trkpt lat="43.1118725" lon="12.4045213"><ele>396.6</ele><time>2026-04-28T17:20:30.241Z</time></trkpt><trkpt lat="43.1118423" lon="12.4046507"><ele>395.8</ele><time>2026-04-28T17:20:31.158Z</time></trkpt><trkpt lat="43.111805" lon="12.4047971"><ele>395.0</ele><time>2026-04-28T17:20:32.186Z</time></trkpt><trkpt lat="43.1117664" lon="12.4049377"><ele>393.3333333333333</ele><time>2026-04-28T17:20:33.15Z</time></trkpt><trkpt lat="43.111727" lon="12.4051123"><ele>391.66666666666663</ele><time>2026-04-28T17:20:34.259Z</time></trkpt><trkpt lat="43.1116613" lon="12.4054223"><ele>390.0</ele><time>2026-04-28T17:20:36.181Z</time></trkpt><trkpt lat="43.1116187" lon="12.4055726"><ele>387.8</ele><time>2026-04-28T17:20:37.151Z</time></trkpt><trkpt lat="43.1115717" lon="12.4057332"><ele>385.6</ele><time>2026-04-28T17:20:38.151Z</time></trkpt><trkpt lat="43.1115277" lon="12.4058678"><ele>383.4</ele><time>2026-04-28T17:20:39.188Z</time></trkpt><trkpt lat="43.1114892" lon="12.4059776"><ele>381.2</ele><time>2026-04-28T17:20:40.16Z</time></trkpt><trkpt lat="43.1114678" lon="12.4060673"><ele>379.0</ele><time>2026-04-28T17:20:41.136Z</time></trkpt><trkpt lat="43.1114668" lon="12.4062304"><ele>379.0</ele><time>2026-04-28T17:20:43.146Z</time></trkpt><trkpt lat="43.1114752" lon="12.4063197"><ele>379.0</ele><time>2026-04-28T17:20:44.192Z</time></trkpt><trkpt lat="43.1114725" lon="12.4064106"><ele>379.0</ele><time>2026-04-28T17:20:45.163Z</time></trkpt><trkpt lat="43.1114946" lon="12.4065643"><ele>379.0</ele><time>2026-04-28T17:20:47.158Z</time></trkpt><trkpt lat="43.1115449" lon="12.4067173"><ele>379.0</ele><time>2026-04-28T17:20:49.179Z</time></trkpt><trkpt lat="43.111587" lon="12.4068544"><ele>378.2</ele><time>2026-04-28T17:20:51.158Z</time></trkpt><trkpt lat="43.1116031" lon="12.4069878"><ele>377.4</ele><time>2026-04-28T17:20:53.181Z</time></trkpt><trkpt lat="43.1116212" lon="12.4071367"><ele>376.6</ele><time>2026-04-28T17:20:55.167Z</time></trkpt><trkpt lat="43.1116301" lon="12.4072707"><ele>375.8</ele><time>2026-04-28T17:20:57.169Z</time></trkpt><trkpt lat="43.1116184" lon="12.4074325"><ele>375.0</ele><time>2026-04-28T17:20:59.171Z</time></trkpt><trkpt lat="43.1115973" lon="12.4075616"><ele>375.1666666666667</ele><time>2026-04-28T17:21:01.172Z</time></trkpt><trkpt lat="43.1115934" lon="12.4076498"><ele>375.3333333333333</ele><time>2026-04-28T17:21:02.146Z</time></trkpt><trkpt lat="43.1115785" lon="12.4077416"><ele>375.5</ele><time>2026-04-28T17:21:03.149Z</time></trkpt><trkpt lat="43.1115484" lon="12.4078309"><ele>375.66666666666663</ele><time>2026-04-28T17:21:04.195Z</time></trkpt><trkpt lat="43.1115634" lon="12.4080026"><ele>375.8333333333333</ele><time>2026-04-28T17:21:06.18Z</time></trkpt><trkpt lat="43.1115684" lon="12.4081067"><ele>376.0</ele><time>2026-04-28T17:21:07.152Z</time></trkpt><trkpt lat="43.1115813" lon="12.4082476"><ele>371.0</ele><time>2026-04-28T17:21:09.199Z</time></trkpt><trkpt lat="43.1116257" lon="12.4083727"><ele>366.0</ele><time>2026-04-28T17:21:11.17Z</time></trkpt><trkpt lat="43.1116363" lon="12.408632"><ele>361.0</ele><time>2026-04-28T17:21:14.175Z</time></trkpt><trkpt lat="43.1116522" lon="12.408855"><ele>360.20000000000005</ele><time>2026-04-28T17:21:16.486Z</time></trkpt><trkpt lat="43.1116559" lon="12.4090202"><ele>359.40000000000003</ele><time>2026-04-28T17:21:18.155Z</time></trkpt><trkpt lat="43.1116633" lon="12.409126"><ele>358.6</ele><time>2026-04-28T17:21:19.159Z</time></trkpt><trkpt lat="43.1116692" lon="12.4092362"><ele>357.8</ele><time>2026-04-28T17:21:20.289Z</time></trkpt><trkpt lat="43.1116643" lon="12.4093907"><ele>357.0</ele><time>2026-04-28T17:21:22.182Z</time></trkpt><trkpt lat="43.1116628" lon="12.4094901"><ele>357.0</ele><time>2026-04-28T17:21:24.162Z</time></trkpt><trkpt lat="43.111669" lon="12.409592"><ele>357.0</ele><time>2026-04-28T17:21:29.157Z</time></trkpt><trkpt lat="43.111695" lon="12.4096766"><ele>357.0</ele><time>2026-04-28T17:21:32.174Z</time></trkpt><trkpt lat="43.1117089" lon="12.4097735"><ele>357.0</ele><time>2026-04-28T17:21:35.149Z</time></trkpt><trkpt lat="43.1117133" lon="12.4098647"><ele>357.0</ele><time>2026-04-28T17:21:37.179Z</time></trkpt><trkpt lat="43.111733" lon="12.4099555"><ele>357.0</ele><time>2026-04-28T17:21:39.154Z</time></trkpt><trkpt lat="43.1117619" lon="12.4100545"><ele>357.0</ele><time>2026-04-28T17:21:41.191Z</time></trkpt><trkpt lat="43.1117761" lon="12.4101575"><ele>356.0</ele><time>2026-04-28T17:21:43.201Z</time></trkpt><trkpt lat="43.1118159" lon="12.4103143"><ele>355.0</ele><time>2026-04-28T17:21:46.141Z</time></trkpt><trkpt lat="43.1118364" lon="12.4104627"><ele>354.0</ele><time>2026-04-28T17:21:48.38Z</time></trkpt><trkpt lat="43.1118358" lon="12.4106041"><ele>353.0</ele><time>2026-04-28T17:21:50.131Z</time></trkpt><trkpt lat="43.1118304" lon="12.4106984"><ele>352.0</ele><time>2026-04-28T17:21:51.152Z</time></trkpt><trkpt lat="43.1118291" lon="12.4107852"><ele>351.7142857142857</ele><time>2026-04-28T17:21:52.152Z</time></trkpt><trkpt lat="43.1118356" lon="12.410871"><ele>351.42857142857144</ele><time>2026-04-28T17:21:53.149Z</time></trkpt><trkpt lat="43.1118462" lon="12.4109572"><ele>351.1428571428571</ele><time>2026-04-28T17:21:54.149Z</time></trkpt><trkpt lat="43.1118675" lon="12.4110426"><ele>350.8571428571429</ele><time>2026-04-28T17:21:55.151Z</time></trkpt><trkpt lat="43.11188" lon="12.4111311"><ele>350.57142857142856</ele><time>2026-04-28T17:21:56.128Z</time></trkpt><trkpt lat="43.1118924" lon="12.4112233"><ele>350.2857142857143</ele><time>2026-04-28T17:21:57.129Z</time></trkpt><trkpt lat="43.1119046" lon="12.41132"><ele>350.0</ele><time>2026-04-28T17:21:58.123Z</time></trkpt><trkpt lat="43.1119156" lon="12.4114219"><ele>349.8</ele><time>2026-04-28T17:21:59.192Z</time></trkpt><trkpt lat="43.1119353" lon="12.4115179"><ele>349.6</ele><time>2026-04-28T17:22:00.254Z</time></trkpt><trkpt lat="43.1119602" lon="12.411704"><ele>349.4</ele><time>2026-04-28T17:22:02.249Z</time></trkpt><trkpt lat="43.1119759" lon="12.411868"><ele>349.2</ele><time>2026-04-28T17:22:04.171Z</time></trkpt><trkpt lat="43.1119916" lon="12.4120224"><ele>349.0</ele><time>2026-04-28T17:22:06.136Z</time></trkpt><trkpt lat="43.1120077" lon="12.4121726"><ele>348.79999999999995</ele><time>2026-04-28T17:22:08.133Z</time></trkpt><trkpt lat="43.1120294" lon="12.4123267"><ele>348.59999999999997</ele><time>2026-04-28T17:22:10.149Z</time></trkpt><trkpt lat="43.1120389" lon="12.4124877"><ele>348.4</ele><time>2026-04-28T17:22:12.154Z</time></trkpt><trkpt lat="43.1120461" lon="12.412575"><ele>348.2</ele><time>2026-04-28T17:22:13.187Z</time></trkpt><trkpt lat="43.1120648" lon="12.4126609"><ele>348.0</ele><time>2026-04-28T17:22:14.195Z</time></trkpt><trkpt lat="43.1120993" lon="12.4128101"><ele>348.0</ele><time>2026-04-28T17:22:16.155Z</time></trkpt><trkpt lat="43.112114" lon="12.412894"><ele>348.0</ele><time>2026-04-28T17:22:17.182Z</time></trkpt><trkpt lat="43.1121329" lon="12.4129822"><ele>348.0</ele><time>2026-04-28T17:22:18.183Z</time></trkpt><trkpt lat="43.1121389" lon="12.4130766"><ele>348.0</ele><time>2026-04-28T17:22:19.171Z</time></trkpt><trkpt lat="43.1121597" lon="12.4131604"><ele>348.0</ele><time>2026-04-28T17:22:20.149Z</time></trkpt><trkpt lat="43.1122076" lon="12.4133081"><ele>348.0</ele><time>2026-04-28T17:22:22.152Z</time></trkpt><trkpt lat="43.1122534" lon="12.4134597"><ele>349.0</ele><time>2026-04-28T17:22:24.205Z</time></trkpt><trkpt lat="43.112322" lon="12.4135886"><ele>350.0</ele><time>2026-04-28T17:22:26.148Z</time></trkpt><trkpt lat="43.1123881" lon="12.4137329"><ele>351.0</ele><time>2026-04-28T17:22:28.204Z</time></trkpt><trkpt lat="43.1124026" lon="12.4138205"><ele>352.0</ele><time>2026-04-28T17:22:29.151Z</time></trkpt><trkpt lat="43.1124169" lon="12.4139181"><ele>353.0</ele><time>2026-04-28T17:22:30.123Z</time></trkpt><trkpt lat="43.1124313" lon="12.4140227"><ele>349.79999999999995</ele><time>2026-04-28T17:22:31.377Z</time></trkpt><trkpt lat="43.1124715" lon="12.4142516"><ele>346.6</ele><time>2026-04-28T17:22:34.182Z</time></trkpt><trkpt lat="43.1124935" lon="12.4143377"><ele>343.4</ele><time>2026-04-28T17:22:35.155Z</time></trkpt><trkpt lat="43.1125134" lon="12.4144344"><ele>340.20000000000005</ele><time>2026-04-28T17:22:36.154Z</time></trkpt><trkpt lat="43.1125316" lon="12.4145521"><ele>337.0</ele><time>2026-04-28T17:22:37.259Z</time></trkpt><trkpt lat="43.1125763" lon="12.4147058"><ele>335.5</ele><time>2026-04-28T17:22:39.136Z</time></trkpt><trkpt lat="43.1126194" lon="12.4147925"><ele>334.0</ele><time>2026-04-28T17:22:41.157Z</time></trkpt><trkpt lat="43.1125441" lon="12.4148201"><ele>332.5</ele><time>2026-04-28T17:22:45.218Z</time></trkpt><trkpt lat="43.1125022" lon="12.4147548"><ele>331.0</ele><time>2026-04-28T17:22:49.181Z</time></trkpt><trkpt lat="43.1124899" lon="12.4148768"><ele>329.5</ele><time>2026-04-28T17:23:58.164Z</time></trkpt><trkpt lat="43.1125189" lon="12.4150334"><ele>328.0</ele><time>2026-04-28T17:24:01.158Z</time></trkpt><trkpt lat="43.1125312" lon="12.4151291"><ele>327.99999999999994</ele><time>2026-04-28T17:24:03.255Z</time></trkpt><trkpt lat="43.1125646" lon="12.4152033"><ele>328.0</ele><time>2026-04-28T17:24:05.256Z</time></trkpt><trkpt lat="43.1126156" lon="12.4152993"><ele>328.0</ele><time>2026-04-28T17:24:08.139Z</time></trkpt><trkpt lat="43.1126567" lon="12.4153923"><ele>328.0</ele><time>2026-04-28T17:24:10.146Z</time></trkpt><trkpt lat="43.1126867" lon="12.4154907"><ele>328.0</ele><time>2026-04-28T17:24:12.129Z</time></trkpt><trkpt lat="43.1127367" lon="12.4155716"><ele>327.99999999999994</ele><time>2026-04-28T17:24:15.155Z</time></trkpt><trkpt lat="43.1127595" lon="12.4156526"><ele>328.0</ele><time>2026-04-28T17:24:17.135Z</time></trkpt><trkpt lat="43.1127947" lon="12.4157431"><ele>327.8333333333333</ele><time>2026-04-28T17:24:20.159Z</time></trkpt><trkpt lat="43.1128138" lon="12.4158402"><ele>327.66666666666663</ele><time>2026-04-28T17:24:22.193Z</time></trkpt><trkpt lat="43.1128363" lon="12.415932"><ele>327.5</ele><time>2026-04-28T17:24:25.255Z</time></trkpt><trkpt lat="43.112886" lon="12.416009"><ele>327.3333333333333</ele><time>2026-04-28T17:24:28.157Z</time></trkpt><trkpt lat="43.1129351" lon="12.4161214"><ele>327.1666666666667</ele><time>2026-04-28T17:24:31.179Z</time></trkpt><trkpt lat="43.1129597" lon="12.4162394"><ele>327.0</ele><time>2026-04-28T17:24:33.159Z</time></trkpt><trkpt lat="43.1129351" lon="12.4163739"><ele>327.0</ele><time>2026-04-28T17:24:35.138Z</time></trkpt><trkpt lat="43.1129112" lon="12.4164775"><ele>327.0</ele><time>2026-04-28T17:24:37.256Z</time></trkpt><trkpt lat="43.112906" lon="12.4165894"><ele>327.0</ele><time>2026-04-28T17:24:39.183Z</time></trkpt><trkpt lat="43.1129232" lon="12.4166937"><ele>327.0</ele><time>2026-04-28T17:24:41.144Z</time></trkpt><trkpt lat="43.1129529" lon="12.4167808"><ele>327.0</ele><time>2026-04-28T17:24:44.166Z</time></trkpt><trkpt lat="43.112981" lon="12.4168734"><ele>327.0</ele><time>2026-04-28T17:24:46.147Z</time></trkpt><trkpt lat="43.1130367" lon="12.4169919"><ele>327.0</ele><time>2026-04-28T17:24:48.158Z</time></trkpt><trkpt lat="43.1130846" lon="12.4170866"><ele>327.0</ele><time>2026-04-28T17:24:50.144Z</time></trkpt><trkpt lat="43.1131179" lon="12.4171628"><ele>327.0</ele><time>2026-04-28T17:24:53.143Z</time></trkpt><trkpt lat="43.1131312" lon="12.4172494"><ele>327.0</ele><time>2026-04-28T17:25:45.191Z</time></trkpt><trkpt lat="43.1131584" lon="12.4173748"><ele>327.0</ele><time>2026-04-28T17:25:48.18Z</time></trkpt><trkpt lat="43.1131908" lon="12.4174578"><ele>327.0</ele><time>2026-04-28T17:25:50.147Z</time></trkpt><trkpt lat="43.1132304" lon="12.4175811"><ele>322.40000000000003</ele><time>2026-04-28T17:25:52.146Z</time></trkpt><trkpt lat="43.1132859" lon="12.4176908"><ele>317.8</ele><time>2026-04-28T17:25:55.158Z</time></trkpt><trkpt lat="43.1133452" lon="12.4178164"><ele>313.2</ele><time>2026-04-28T17:25:57.151Z</time></trkpt><trkpt lat="43.1133912" lon="12.417893"><ele>308.6</ele><time>2026-04-28T17:25:59.176Z</time></trkpt><trkpt lat="43.1134378" lon="12.4179738"><ele>304.0</ele><time>2026-04-28T17:26:01.15Z</time></trkpt><trkpt lat="43.1134396" lon="12.4181404"><ele>303.66666666666663</ele><time>2026-04-28T17:26:06.156Z</time></trkpt><trkpt lat="43.1135002" lon="12.4182925"><ele>303.3333333333333</ele><time>2026-04-28T17:26:08.139Z</time></trkpt><trkpt lat="43.1135615" lon="12.4183858"><ele>303.0</ele><time>2026-04-28T17:26:10.161Z</time></trkpt><trkpt lat="43.1136251" lon="12.4184175"><ele>302.6666666666667</ele><time>2026-04-28T17:26:13.153Z</time></trkpt><trkpt lat="43.1136749" lon="12.4184827"><ele>302.33333333333337</ele><time>2026-04-28T17:26:17.153Z</time></trkpt><trkpt lat="43.113726" lon="12.4185365"><ele>302.0</ele><time>2026-04-28T17:26:19.165Z</time></trkpt><trkpt lat="43.1137723" lon="12.418614"><ele>302.0</ele><time>2026-04-28T17:26:23.175Z</time></trkpt><trkpt lat="43.1137723" lon="12.4187158"><ele>302.0</ele><time>2026-04-28T17:26:48.133Z</time></trkpt><trkpt lat="43.1138364" lon="12.4188249"><ele>302.0</ele><time>2026-04-28T17:26:51.141Z</time></trkpt><trkpt lat="43.1138899" lon="12.4189115"><ele>302.0</ele><time>2026-04-28T17:26:53.154Z</time></trkpt><trkpt lat="43.11395" lon="12.418948"><ele>302.0</ele><time>2026-04-28T17:26:55.139Z</time></trkpt><trkpt lat="43.1140118" lon="12.4189793"><ele>302.0</ele><time>2026-04-28T17:26:57.152Z</time></trkpt><trkpt lat="43.1140967" lon="12.4190031"><ele>295.8</ele><time>2026-04-28T17:27:02.159Z</time></trkpt><trkpt lat="43.1141986" lon="12.4190858"><ele>289.6</ele><time>2026-04-28T17:27:04.144Z</time></trkpt><trkpt lat="43.1142746" lon="12.4192197"><ele>283.40000000000003</ele><time>2026-04-28T17:27:06.135Z</time></trkpt><trkpt lat="43.1143199" lon="12.4193074"><ele>277.2</ele><time>2026-04-28T17:27:07.157Z</time></trkpt><trkpt lat="43.1143881" lon="12.4194391"><ele>271.0</ele><time>2026-04-28T17:27:09.173Z</time></trkpt><trkpt lat="43.1144282" lon="12.4195365"><ele>271.0</ele><time>2026-04-28T17:27:11.141Z</time></trkpt><trkpt lat="43.1144649" lon="12.4196277"><ele>271.0</ele><time>2026-04-28T17:27:15.193Z</time></trkpt><trkpt lat="43.1145175" lon="12.4196788"><ele>271.0</ele><time>2026-04-28T17:27:22.179Z</time></trkpt><trkpt lat="43.1145546" lon="12.4197523"><ele>271.0</ele><time>2026-04-28T17:27:26.152Z</time></trkpt><trkpt lat="43.1145676" lon="12.419872"><ele>271.0</ele><time>2026-04-28T17:27:29.198Z</time></trkpt><trkpt lat="43.1145939" lon="12.4199765"><ele>271.0</ele><time>2026-04-28T17:27:31.144Z</time></trkpt><trkpt lat="43.114626" lon="12.4201035"><ele>269.8</ele><time>2026-04-28T17:27:33.146Z</time></trkpt><trkpt lat="43.1146418" lon="12.4202353"><ele>268.6</ele><time>2026-04-28T17:27:35.136Z</time></trkpt><trkpt lat="43.1146507" lon="12.4203812"><ele>267.4</ele><time>2026-04-28T17:27:37.139Z</time></trkpt><trkpt lat="43.1146847" lon="12.4205092"><ele>266.2</ele><time>2026-04-28T17:27:39.154Z</time></trkpt><trkpt lat="43.1147206" lon="12.4206368"><ele>265.0</ele><time>2026-04-28T17:27:41.163Z</time></trkpt><trkpt lat="43.1147483" lon="12.4207918"><ele>264.5</ele><time>2026-04-28T17:27:43.151Z</time></trkpt><trkpt lat="43.1147691" lon="12.420962"><ele>264.0</ele><time>2026-04-28T17:27:45.164Z</time></trkpt><trkpt lat="43.1147715" lon="12.4211277"><ele>263.5</ele><time>2026-04-28T17:27:47.123Z</time></trkpt><trkpt lat="43.1147619" lon="12.4212193"><ele>263.0</ele><time>2026-04-28T17:27:48.15Z</time></trkpt><trkpt lat="43.1147573" lon="12.421307"><ele>262.5</ele><time>2026-04-28T17:27:49.149Z</time></trkpt><trkpt lat="43.1147604" lon="12.4213977"><ele>262.0</ele><time>2026-04-28T17:27:50.165Z</time></trkpt><trkpt lat="43.1147551" lon="12.4214852"><ele>260.66666666666663</ele><time>2026-04-28T17:27:51.143Z</time></trkpt><trkpt lat="43.1147586" lon="12.4215805"><ele>259.3333333333333</ele><time>2026-04-28T17:27:52.147Z</time></trkpt><trkpt lat="43.1147608" lon="12.4216822"><ele>258.0</ele><time>2026-04-28T17:27:53.152Z</time></trkpt><trkpt lat="43.114761" lon="12.4217815"><ele>256.6666666666667</ele><time>2026-04-28T17:27:54.16Z</time></trkpt><trkpt lat="43.1147609" lon="12.42189"><ele>255.33333333333334</ele><time>2026-04-28T17:27:55.155Z</time></trkpt><trkpt lat="43.1147559" lon="12.4219983"><ele>254.0</ele><time>2026-04-28T17:27:56.139Z</time></trkpt><trkpt lat="43.114753" lon="12.4221109"><ele>253.33333333333334</ele><time>2026-04-28T17:27:57.139Z</time></trkpt><trkpt lat="43.1147509" lon="12.4222279"><ele>252.66666666666669</ele><time>2026-04-28T17:27:58.145Z</time></trkpt><trkpt lat="43.1147515" lon="12.4223458"><ele>252.0</ele><time>2026-04-28T17:27:59.171Z</time></trkpt><trkpt lat="43.1147531" lon="12.4224568"><ele>251.33333333333331</ele><time>2026-04-28T17:28:00.133Z</time></trkpt><trkpt lat="43.1147518" lon="12.4225661"><ele>250.66666666666666</ele><time>2026-04-28T17:28:01.127Z</time></trkpt><trkpt lat="43.1147466" lon="12.4226808"><ele>250.0</ele><time>2026-04-28T17:28:02.144Z</time></trkpt><trkpt lat="43.1147425" lon="12.4227896"><ele>249.99999999999997</ele><time>2026-04-28T17:28:03.153Z</time></trkpt><trkpt lat="43.1147336" lon="12.4228988"><ele>250.0</ele><time>2026-04-28T17:28:04.176Z</time></trkpt><trkpt lat="43.114727" lon="12.4230081"><ele>250.0</ele><time>2026-04-28T17:28:05.129Z</time></trkpt><trkpt lat="43.1147123" lon="12.4231276"><ele>250.0</ele><time>2026-04-28T17:28:06.183Z</time></trkpt><trkpt lat="43.1146981" lon="12.423236"><ele>249.99999999999997</ele><time>2026-04-28T17:28:07.149Z</time></trkpt><trkpt lat="43.1146772" lon="12.4233517"><ele>250.0</ele><time>2026-04-28T17:28:08.162Z</time></trkpt><trkpt lat="43.1146582" lon="12.4234584"><ele>249.49999999999997</ele><time>2026-04-28T17:28:09.164Z</time></trkpt><trkpt lat="43.1146342" lon="12.4235674"><ele>249.0</ele><time>2026-04-28T17:28:10.152Z</time></trkpt><trkpt lat="43.114615" lon="12.4236789"><ele>248.5</ele><time>2026-04-28T17:28:11.157Z</time></trkpt><trkpt lat="43.114595" lon="12.4237894"><ele>248.0</ele><time>2026-04-28T17:28:12.143Z</time></trkpt><trkpt lat="43.1145704" lon="12.4239005"><ele>247.49999999999997</ele><time>2026-04-28T17:28:13.165Z</time></trkpt><trkpt lat="43.1145572" lon="12.4240048"><ele>247.0</ele><time>2026-04-28T17:28:14.139Z</time></trkpt><trkpt lat="43.1145348" lon="12.4241099"><ele>246.28571428571428</ele><time>2026-04-28T17:28:15.153Z</time></trkpt><trkpt lat="43.1145073" lon="12.4242084"><ele>245.57142857142856</ele><time>2026-04-28T17:28:16.136Z</time></trkpt><trkpt lat="43.1144834" lon="12.4243027"><ele>244.85714285714283</ele><time>2026-04-28T17:28:17.14Z</time></trkpt><trkpt lat="43.1144575" lon="12.424391"><ele>244.14285714285714</ele><time>2026-04-28T17:28:18.142Z</time></trkpt><trkpt lat="43.1144117" lon="12.4244672"><ele>243.4285714285714</ele><time>2026-04-28T17:28:19.177Z</time></trkpt><trkpt lat="43.1143761" lon="12.4245429"><ele>242.7142857142857</ele><time>2026-04-28T17:28:20.133Z</time></trkpt><trkpt lat="43.1143398" lon="12.4246168"><ele>242.0</ele><time>2026-04-28T17:28:21.117Z</time></trkpt><trkpt lat="43.1143025" lon="12.4246914"><ele>241.7142857142857</ele><time>2026-04-28T17:28:22.123Z</time></trkpt><trkpt lat="43.1142686" lon="12.4247779"><ele>241.4285714285714</ele><time>2026-04-28T17:28:23.136Z</time></trkpt><trkpt lat="43.1142328" lon="12.4248635"><ele>241.14285714285714</ele><time>2026-04-28T17:28:24.162Z</time></trkpt><trkpt lat="43.1142007" lon="12.424952"><ele>240.85714285714283</ele><time>2026-04-28T17:28:25.165Z</time></trkpt><trkpt lat="43.1141748" lon="12.4250415"><ele>240.57142857142856</ele><time>2026-04-28T17:28:26.126Z</time></trkpt><trkpt lat="43.1141632" lon="12.4251446"><ele>240.28571428571428</ele><time>2026-04-28T17:28:27.14Z</time></trkpt><trkpt lat="43.114165" lon="12.4252526"><ele>240.0</ele><time>2026-04-28T17:28:28.154Z</time></trkpt><trkpt lat="43.1141836" lon="12.4253545"><ele>240.0</ele><time>2026-04-28T17:28:29.142Z</time></trkpt><trkpt lat="43.1142272" lon="12.4254629"><ele>240.0</ele><time>2026-04-28T17:28:30.153Z</time></trkpt><trkpt lat="43.114278" lon="12.425561"><ele>240.0</ele><time>2026-04-28T17:28:31.172Z</time></trkpt><trkpt lat="43.1143385" lon="12.4256296"><ele>240.0</ele><time>2026-04-28T17:28:32.14Z</time></trkpt><trkpt lat="43.1144044" lon="12.4257005"><ele>240.0</ele><time>2026-04-28T17:28:33.157Z</time></trkpt><trkpt lat="43.1144604" lon="12.4257779"><ele>240.0</ele><time>2026-04-28T17:28:34.151Z</time></trkpt><trkpt lat="43.1145085" lon="12.4258601"><ele>240.0</ele><time>2026-04-28T17:28:35.124Z</time></trkpt><trkpt lat="43.1145521" lon="12.4259501"><ele>240.0</ele><time>2026-04-28T17:28:36.136Z</time></trkpt><trkpt lat="43.1145806" lon="12.4260488"><ele>240.0</ele><time>2026-04-28T17:28:37.126Z</time></trkpt><trkpt lat="43.1145983" lon="12.4261507"><ele>240.0</ele><time>2026-04-28T17:28:38.127Z</time></trkpt><trkpt lat="43.1146089" lon="12.4262536"><ele>240.0</ele><time>2026-04-28T17:28:39.135Z</time></trkpt><trkpt lat="43.1146082" lon="12.4263522"><ele>240.0</ele><time>2026-04-28T17:28:40.107Z</time></trkpt><trkpt lat="43.1145935" lon="12.4264534"><ele>240.0</ele><time>2026-04-28T17:28:41.13Z</time></trkpt><trkpt lat="43.1145775" lon="12.4265504"><ele>240.0</ele><time>2026-04-28T17:28:42.136Z</time></trkpt><trkpt lat="43.1145591" lon="12.4266446"><ele>240.0</ele><time>2026-04-28T17:28:43.181Z</time></trkpt><trkpt lat="43.1145398" lon="12.4267311"><ele>240.0</ele><time>2026-04-28T17:28:44.147Z</time></trkpt><trkpt lat="43.1145134" lon="12.4269078"><ele>240.0</ele><time>2026-04-28T17:28:46.114Z</time></trkpt><trkpt lat="43.114497" lon="12.4270117"><ele>240.0</ele><time>2026-04-28T17:28:47.14Z</time></trkpt><trkpt lat="43.114483" lon="12.4271185"><ele>239.5</ele><time>2026-04-28T17:28:48.119Z</time></trkpt><trkpt lat="43.1144755" lon="12.4272174"><ele>239.0</ele><time>2026-04-28T17:28:49.112Z</time></trkpt><trkpt lat="43.1144717" lon="12.4273224"><ele>238.5</ele><time>2026-04-28T17:28:50.137Z</time></trkpt><trkpt lat="43.1144625" lon="12.4274247"><ele>238.0</ele><time>2026-04-28T17:28:51.122Z</time></trkpt><trkpt lat="43.1144605" lon="12.4275257"><ele>237.5</ele><time>2026-04-28T17:28:52.108Z</time></trkpt><trkpt lat="43.1144527" lon="12.4276246"><ele>237.0</ele><time>2026-04-28T17:28:53.13Z</time></trkpt><trkpt lat="43.1144304" lon="12.4277991"><ele>237.0</ele><time>2026-04-28T17:28:55.142Z</time></trkpt><trkpt lat="43.114407" lon="12.4279596"><ele>237.0</ele><time>2026-04-28T17:28:57.147Z</time></trkpt><trkpt lat="43.1143808" lon="12.4280976"><ele>237.0</ele><time>2026-04-28T17:28:59.168Z</time></trkpt><trkpt lat="43.1143495" lon="12.4282519"><ele>237.0</ele><time>2026-04-28T17:29:01.248Z</time></trkpt><trkpt lat="43.114336" lon="12.4283911"><ele>237.0</ele><time>2026-04-28T17:29:03.132Z</time></trkpt><trkpt lat="43.1143311" lon="12.4285554"><ele>236.5</ele><time>2026-04-28T17:29:05.151Z</time></trkpt><trkpt lat="43.1143392" lon="12.4286491"><ele>236.0</ele><time>2026-04-28T17:29:06.245Z</time></trkpt><trkpt lat="43.1143769" lon="12.428815"><ele>235.5</ele><time>2026-04-28T17:29:08.141Z</time></trkpt><trkpt lat="43.1143978" lon="12.4289079"><ele>235.0</ele><time>2026-04-28T17:29:09.197Z</time></trkpt><trkpt lat="43.1144135" lon="12.428998"><ele>234.5</ele><time>2026-04-28T17:29:10.154Z</time></trkpt><trkpt lat="43.1144331" lon="12.4290965"><ele>234.0</ele><time>2026-04-28T17:29:11.142Z</time></trkpt><trkpt lat="43.1144485" lon="12.4291992"><ele>233.5</ele><time>2026-04-28T17:29:12.157Z</time></trkpt><trkpt lat="43.1144529" lon="12.4292975"><ele>233.0</ele><time>2026-04-28T17:29:13.16Z</time></trkpt><trkpt lat="43.1144567" lon="12.4293884"><ele>232.5</ele><time>2026-04-28T17:29:14.161Z</time></trkpt><trkpt lat="43.1144652" lon="12.4295527"><ele>232.0</ele><time>2026-04-28T17:29:16.128Z</time></trkpt><trkpt lat="43.114469" lon="12.4296449"><ele>231.5</ele><time>2026-04-28T17:29:17.249Z</time></trkpt><trkpt lat="43.1144734" lon="12.4298101"><ele>231.0</ele><time>2026-04-28T17:29:19.107Z</time></trkpt><trkpt lat="43.1144771" lon="12.4299089"><ele>231.0</ele><time>2026-04-28T17:29:20.149Z</time></trkpt><trkpt lat="43.1144875" lon="12.4300071"><ele>231.0</ele><time>2026-04-28T17:29:21.237Z</time></trkpt><trkpt lat="43.114502" lon="12.4301809"><ele>231.0</ele><time>2026-04-28T17:29:23.15Z</time></trkpt><trkpt lat="43.1145153" lon="12.430281"><ele>231.0</ele><time>2026-04-28T17:29:24.233Z</time></trkpt><trkpt lat="43.1145132" lon="12.4303705"><ele>231.0</ele><time>2026-04-28T17:29:25.185Z</time></trkpt><trkpt lat="43.1145104" lon="12.4304615"><ele>231.0</ele><time>2026-04-28T17:29:26.164Z</time></trkpt><trkpt lat="43.1145251" lon="12.4305532"><ele>230.8</ele><time>2026-04-28T17:29:27.147Z</time></trkpt><trkpt lat="43.1145245" lon="12.4306401"><ele>230.60000000000002</ele><time>2026-04-28T17:29:28.155Z</time></trkpt><trkpt lat="43.1145312" lon="12.4307892"><ele>230.4</ele><time>2026-04-28T17:29:30.158Z</time></trkpt><trkpt lat="43.1145189" lon="12.4309583"><ele>230.2</ele><time>2026-04-28T17:29:32.26Z</time></trkpt><trkpt lat="43.1145268" lon="12.4311371"><ele>230.0</ele><time>2026-04-28T17:29:34.251Z</time></trkpt><trkpt lat="43.1145314" lon="12.4313181"><ele>229.16666666666669</ele><time>2026-04-28T17:29:36.148Z</time></trkpt><trkpt lat="43.1145343" lon="12.4314191"><ele>228.33333333333334</ele><time>2026-04-28T17:29:37.139Z</time></trkpt><trkpt lat="43.114539" lon="12.4315195"><ele>227.5</ele><time>2026-04-28T17:29:38.133Z</time></trkpt><trkpt lat="43.1145519" lon="12.4316355"><ele>226.66666666666669</ele><time>2026-04-28T17:29:39.172Z</time></trkpt><trkpt lat="43.114563" lon="12.4317404"><ele>225.83333333333334</ele><time>2026-04-28T17:29:40.129Z</time></trkpt><trkpt lat="43.114575" lon="12.4318591"><ele>225.0</ele><time>2026-04-28T17:29:41.158Z</time></trkpt><trkpt lat="43.1145841" lon="12.4319746"><ele>225.0</ele><time>2026-04-28T17:29:42.133Z</time></trkpt><trkpt lat="43.1146007" lon="12.4320961"><ele>225.0</ele><time>2026-04-28T17:29:43.157Z</time></trkpt><trkpt lat="43.1146176" lon="12.4322179"><ele>225.0</ele><time>2026-04-28T17:29:44.156Z</time></trkpt><trkpt lat="43.114635" lon="12.4323469"><ele>225.0</ele><time>2026-04-28T17:29:45.188Z</time></trkpt><trkpt lat="43.1146515" lon="12.4324686"><ele>225.0</ele><time>2026-04-28T17:29:46.15Z</time></trkpt><trkpt lat="43.1146676" lon="12.4326003"><ele>223.6</ele><time>2026-04-28T17:29:47.165Z</time></trkpt><trkpt lat="43.1146825" lon="12.4327303"><ele>222.2</ele><time>2026-04-28T17:29:48.159Z</time></trkpt><trkpt lat="43.1146972" lon="12.432859"><ele>220.8</ele><time>2026-04-28T17:29:49.137Z</time></trkpt><trkpt lat="43.1147103" lon="12.4329904"><ele>219.4</ele><time>2026-04-28T17:29:50.131Z</time></trkpt><trkpt lat="43.1147282" lon="12.433126"><ele>218.0</ele><time>2026-04-28T17:29:51.16Z</time></trkpt><trkpt lat="43.1147424" lon="12.433257"><ele>217.8</ele><time>2026-04-28T17:29:52.132Z</time></trkpt><trkpt lat="43.1147637" lon="12.4333908"><ele>217.60000000000002</ele><time>2026-04-28T17:29:53.142Z</time></trkpt><trkpt lat="43.1147749" lon="12.4335288"><ele>217.39999999999998</ele><time>2026-04-28T17:29:54.175Z</time></trkpt><trkpt lat="43.1147889" lon="12.4336644"><ele>217.2</ele><time>2026-04-28T17:29:55.184Z</time></trkpt><trkpt lat="43.1148018" lon="12.4337955"><ele>217.0</ele><time>2026-04-28T17:29:56.148Z</time></trkpt><trkpt lat="43.1148025" lon="12.4339333"><ele>217.0</ele><time>2026-04-28T17:29:57.166Z</time></trkpt><trkpt lat="43.1148135" lon="12.4340628"><ele>217.0</ele><time>2026-04-28T17:29:58.13Z</time></trkpt><trkpt lat="43.1148256" lon="12.4341988"><ele>217.0</ele><time>2026-04-28T17:29:59.157Z</time></trkpt><trkpt lat="43.1148392" lon="12.4343305"><ele>217.0</ele><time>2026-04-28T17:30:00.17Z</time></trkpt><trkpt lat="43.1148454" lon="12.4344585"><ele>217.0</ele><time>2026-04-28T17:30:01.158Z</time></trkpt><trkpt lat="43.1148634" lon="12.4345953"><ele>217.75</ele><time>2026-04-28T17:30:02.244Z</time></trkpt><trkpt lat="43.1148754" lon="12.4347137"><ele>218.5</ele><time>2026-04-28T17:30:03.157Z</time></trkpt><trkpt lat="43.1148941" lon="12.4348448"><ele>219.25</ele><time>2026-04-28T17:30:04.259Z</time></trkpt><trkpt lat="43.1149165" lon="12.4349842"><ele>220.0</ele><time>2026-04-28T17:30:05.387Z</time></trkpt><trkpt lat="43.1149575" lon="12.4352064"><ele>217.6</ele><time>2026-04-28T17:30:07.145Z</time></trkpt><trkpt lat="43.1149848" lon="12.4353342"><ele>215.2</ele><time>2026-04-28T17:30:08.164Z</time></trkpt><trkpt lat="43.115016" lon="12.4354589"><ele>212.8</ele><time>2026-04-28T17:30:09.153Z</time></trkpt><trkpt lat="43.1150445" lon="12.4355882"><ele>210.4</ele><time>2026-04-28T17:30:10.146Z</time></trkpt><trkpt lat="43.1150875" lon="12.4357359"><ele>208.0</ele><time>2026-04-28T17:30:11.259Z</time></trkpt><trkpt lat="43.1151218" lon="12.4358591"><ele>206.8</ele><time>2026-04-28T17:30:12.161Z</time></trkpt><trkpt lat="43.1151569" lon="12.4359936"><ele>205.60000000000002</ele><time>2026-04-28T17:30:13.155Z</time></trkpt><trkpt lat="43.1151971" lon="12.4361438"><ele>204.39999999999998</ele><time>2026-04-28T17:30:14.265Z</time></trkpt><trkpt lat="43.1152246" lon="12.4362664"><ele>203.2</ele><time>2026-04-28T17:30:15.165Z</time></trkpt><trkpt lat="43.1152704" lon="12.4364091"><ele>202.0</ele><time>2026-04-28T17:30:16.267Z</time></trkpt><trkpt lat="43.1153062" lon="12.4365175"><ele>201.66666666666666</ele><time>2026-04-28T17:30:17.174Z</time></trkpt><trkpt lat="43.1153413" lon="12.4366462"><ele>201.33333333333331</ele><time>2026-04-28T17:30:18.235Z</time></trkpt><trkpt lat="43.1153748" lon="12.4367493"><ele>201.0</ele><time>2026-04-28T17:30:19.191Z</time></trkpt><trkpt lat="43.1154034" lon="12.4368614"><ele>200.66666666666669</ele><time>2026-04-28T17:30:20.167Z</time></trkpt><trkpt lat="43.1154113" lon="12.4369754"><ele>200.33333333333334</ele><time>2026-04-28T17:30:21.159Z</time></trkpt><trkpt lat="43.1154064" lon="12.437087"><ele>200.0</ele><time>2026-04-28T17:30:22.219Z</time></trkpt><trkpt lat="43.1153836" lon="12.437185"><ele>199.83333333333334</ele><time>2026-04-28T17:30:23.176Z</time></trkpt><trkpt lat="43.11536" lon="12.4372827"><ele>199.66666666666669</ele><time>2026-04-28T17:30:24.216Z</time></trkpt><trkpt lat="43.1153416" lon="12.4373663"><ele>199.5</ele><time>2026-04-28T17:30:25.156Z</time></trkpt><trkpt lat="43.1153085" lon="12.4374513"><ele>199.33333333333331</ele><time>2026-04-28T17:30:26.281Z</time></trkpt><trkpt lat="43.1152564" lon="12.437585"><ele>199.16666666666666</ele><time>2026-04-28T17:30:28.25Z</time></trkpt><trkpt lat="43.1152117" lon="12.4377051"><ele>199.0</ele><time>2026-04-28T17:30:30.163Z</time></trkpt><trkpt lat="43.1151547" lon="12.4378287"><ele>198.99999999999997</ele><time>2026-04-28T17:30:32.164Z</time></trkpt><trkpt lat="43.1150735" lon="12.4379485"><ele>199.0</ele><time>2026-04-28T17:30:34.203Z</time></trkpt><trkpt lat="43.1150201" lon="12.4379961"><ele>199.0</ele><time>2026-04-28T17:30:35.259Z</time></trkpt><trkpt lat="43.1149362" lon="12.4381109"><ele>199.0</ele><time>2026-04-28T17:30:37.179Z</time></trkpt><trkpt lat="43.1148815" lon="12.4381647"><ele>198.99999999999997</ele><time>2026-04-28T17:30:38.27Z</time></trkpt><trkpt lat="43.1148313" lon="12.4382178"><ele>199.0</ele><time>2026-04-28T17:30:39.261Z</time></trkpt><trkpt lat="43.1147337" lon="12.4383179"><ele>199.0</ele><time>2026-04-28T17:30:41.179Z</time></trkpt><trkpt lat="43.1146811" lon="12.4383654"><ele>199.0</ele><time>2026-04-28T17:30:42.163Z</time></trkpt><trkpt lat="43.1145799" lon="12.4384644"><ele>199.0</ele><time>2026-04-28T17:30:44.161Z</time></trkpt><trkpt lat="43.1144854" lon="12.4385868"><ele>199.0</ele><time>2026-04-28T17:30:46.27Z</time></trkpt><trkpt lat="43.1143912" lon="12.4386843"><ele>199.0</ele><time>2026-04-28T17:30:48.16Z</time></trkpt><trkpt lat="43.1143276" lon="12.4387241"><ele>198.75</ele><time>2026-04-28T17:30:49.185Z</time></trkpt><trkpt lat="43.1142256" lon="12.4388052"><ele>198.5</ele><time>2026-04-28T17:30:51.137Z</time></trkpt><trkpt lat="43.1141215" lon="12.4388891"><ele>198.25</ele><time>2026-04-28T17:30:53.165Z</time></trkpt><trkpt lat="43.1140122" lon="12.4389605"><ele>198.0</ele><time>2026-04-28T17:30:55.152Z</time></trkpt><trkpt lat="43.1139031" lon="12.4390157"><ele>198.60000000000002</ele><time>2026-04-28T17:30:57.151Z</time></trkpt><trkpt lat="43.1137945" lon="12.4390758"><ele>199.20000000000002</ele><time>2026-04-28T17:30:59.192Z</time></trkpt><trkpt lat="43.1136942" lon="12.4391325"><ele>199.8</ele><time>2026-04-28T17:31:01.142Z</time></trkpt><trkpt lat="43.1135917" lon="12.4391843"><ele>200.4</ele><time>2026-04-28T17:31:03.165Z</time></trkpt><trkpt lat="43.1134973" lon="12.4392276"><ele>201.0</ele><time>2026-04-28T17:31:05.193Z</time></trkpt><trkpt lat="43.1134051" lon="12.4392744"><ele>201.0</ele><time>2026-04-28T17:31:07.164Z</time></trkpt><trkpt lat="43.1133118" lon="12.4393255"><ele>201.0</ele><time>2026-04-28T17:31:09.166Z</time></trkpt><trkpt lat="43.1132171" lon="12.4393728"><ele>201.0</ele><time>2026-04-28T17:31:11.149Z</time></trkpt><trkpt lat="43.1131227" lon="12.4394156"><ele>201.0</ele><time>2026-04-28T17:31:13.169Z</time></trkpt><trkpt lat="43.1130148" lon="12.4394416"><ele>201.0</ele><time>2026-04-28T17:31:15.252Z</time></trkpt><trkpt lat="43.112927" lon="12.4394871"><ele>201.20000000000002</ele><time>2026-04-28T17:31:17.133Z</time></trkpt><trkpt lat="43.112836" lon="12.439539"><ele>201.4</ele><time>2026-04-28T17:31:19.187Z</time></trkpt><trkpt lat="43.1127412" lon="12.4395763"><ele>201.6</ele><time>2026-04-28T17:31:21.16Z</time></trkpt><trkpt lat="43.1126539" lon="12.4396242"><ele>201.8</ele><time>2026-04-28T17:31:23.16Z</time></trkpt><trkpt lat="43.1125555" lon="12.4396662"><ele>202.0</ele><time>2026-04-28T17:31:25.147Z</time></trkpt><trkpt lat="43.112457" lon="12.4397173"><ele>203.2</ele><time>2026-04-28T17:31:27.168Z</time></trkpt><trkpt lat="43.1123665" lon="12.4397686"><ele>204.39999999999998</ele><time>2026-04-28T17:31:29.168Z</time></trkpt><trkpt lat="43.1122788" lon="12.4398153"><ele>205.60000000000002</ele><time>2026-04-28T17:31:31.149Z</time></trkpt><trkpt lat="43.1121908" lon="12.4398627"><ele>206.8</ele><time>2026-04-28T17:31:33.167Z</time></trkpt><trkpt lat="43.1121028" lon="12.4399149"><ele>208.0</ele><time>2026-04-28T17:31:35.163Z</time></trkpt><trkpt lat="43.1120126" lon="12.4399579"><ele>208.0</ele><time>2026-04-28T17:31:37.164Z</time></trkpt><trkpt lat="43.1119217" lon="12.4399924"><ele>208.0</ele><time>2026-04-28T17:31:39.194Z</time></trkpt><trkpt lat="43.1118244" lon="12.4400535"><ele>208.0</ele><time>2026-04-28T17:31:41.17Z</time></trkpt><trkpt lat="43.1117182" lon="12.4401107"><ele>208.0</ele><time>2026-04-28T17:31:43.167Z</time></trkpt><trkpt lat="43.1116051" lon="12.4401693"><ele>208.0</ele><time>2026-04-28T17:31:45.187Z</time></trkpt><trkpt lat="43.1114898" lon="12.440218"><ele>207.8</ele><time>2026-04-28T17:31:47.218Z</time></trkpt><trkpt lat="43.111375" lon="12.4402634"><ele>207.60000000000002</ele><time>2026-04-28T17:31:49.19Z</time></trkpt><trkpt lat="43.1113126" lon="12.4402806"><ele>207.39999999999998</ele><time>2026-04-28T17:31:50.197Z</time></trkpt><trkpt lat="43.1111892" lon="12.4402858"><ele>207.2</ele><time>2026-04-28T17:31:52.199Z</time></trkpt><trkpt lat="43.1110821" lon="12.4402636"><ele>207.0</ele><time>2026-04-28T17:31:54.195Z</time></trkpt><trkpt lat="43.1109831" lon="12.4402115"><ele>207.0</ele><time>2026-04-28T17:31:56.413Z</time></trkpt><trkpt lat="43.1109132" lon="12.4401889"><ele>207.0</ele><time>2026-04-28T17:31:58.194Z</time></trkpt><trkpt lat="43.1108351" lon="12.4401643"><ele>207.0</ele><time>2026-04-28T17:32:00.196Z</time></trkpt><trkpt lat="43.1107566" lon="12.440194"><ele>207.0</ele><time>2026-04-28T17:32:02.208Z</time></trkpt><trkpt lat="43.1106794" lon="12.4402561"><ele>207.0</ele><time>2026-04-28T17:32:04.259Z</time></trkpt><trkpt lat="43.1106029" lon="12.4403207"><ele>207.0</ele><time>2026-04-28T17:32:06.178Z</time></trkpt><trkpt lat="43.1105207" lon="12.4403971"><ele>206.75</ele><time>2026-04-28T17:32:08.188Z</time></trkpt><trkpt lat="43.1103946" lon="12.4405139"><ele>206.5</ele><time>2026-04-28T17:32:11.213Z</time></trkpt><trkpt lat="43.1103128" lon="12.4405973"><ele>206.25</ele><time>2026-04-28T17:32:13.191Z</time></trkpt><trkpt lat="43.1102284" lon="12.4406764"><ele>206.0</ele><time>2026-04-28T17:32:15.178Z</time></trkpt><trkpt lat="43.1101005" lon="12.4407928"><ele>206.0</ele><time>2026-04-28T17:32:18.167Z</time></trkpt><trkpt lat="43.1100145" lon="12.44088"><ele>206.0</ele><time>2026-04-28T17:32:20.206Z</time></trkpt><trkpt lat="43.1099319" lon="12.4409685"><ele>206.0</ele><time>2026-04-28T17:32:22.16Z</time></trkpt><trkpt lat="43.1098441" lon="12.4410605"><ele>206.0</ele><time>2026-04-28T17:32:24.168Z</time></trkpt><trkpt lat="43.1097563" lon="12.4411517"><ele>206.0</ele><time>2026-04-28T17:32:26.17Z</time></trkpt><trkpt lat="43.109668" lon="12.4412422"><ele>209.20000000000002</ele><time>2026-04-28T17:32:28.151Z</time></trkpt><trkpt lat="43.1095871" lon="12.4413377"><ele>212.4</ele><time>2026-04-28T17:32:30.147Z</time></trkpt><trkpt lat="43.1095074" lon="12.4414358"><ele>215.6</ele><time>2026-04-28T17:32:32.159Z</time></trkpt><trkpt lat="43.1094227" lon="12.4415365"><ele>218.8</ele><time>2026-04-28T17:32:34.195Z</time></trkpt><trkpt lat="43.1093543" lon="12.4416379"><ele>222.0</ele><time>2026-04-28T17:32:36.15Z</time></trkpt><trkpt lat="43.1092849" lon="12.4417478"><ele>222.0</ele><time>2026-04-28T17:32:38.146Z</time></trkpt><trkpt lat="43.1092124" lon="12.4418646"><ele>222.0</ele><time>2026-04-28T17:32:40.134Z</time></trkpt><trkpt lat="43.1091372" lon="12.4419847"><ele>222.0</ele><time>2026-04-28T17:32:42.131Z</time></trkpt><trkpt lat="43.1090757" lon="12.4421043"><ele>222.0</ele><time>2026-04-28T17:32:44.108Z</time></trkpt><trkpt lat="43.1090107" lon="12.4422298"><ele>222.0</ele><time>2026-04-28T17:32:46.135Z</time></trkpt><trkpt lat="43.1089356" lon="12.4423513"><ele>223.5</ele><time>2026-04-28T17:32:48.137Z</time></trkpt><trkpt lat="43.1088683" lon="12.4424662"><ele>225.0</ele><time>2026-04-28T17:32:50.157Z</time></trkpt><trkpt lat="43.1088015" lon="12.4425851"><ele>226.5</ele><time>2026-04-28T17:32:52.116Z</time></trkpt><trkpt lat="43.1086979" lon="12.4427714"><ele>228.0</ele><time>2026-04-28T17:32:55.125Z</time></trkpt><trkpt lat="43.1086325" lon="12.4428977"><ele>222.25</ele><time>2026-04-28T17:32:57.14Z</time></trkpt><trkpt lat="43.1085552" lon="12.4430305"><ele>216.5</ele><time>2026-04-28T17:32:59.25Z</time></trkpt><trkpt lat="43.1084868" lon="12.443142"><ele>210.75</ele><time>2026-04-28T17:33:01.152Z</time></trkpt><trkpt lat="43.1084141" lon="12.4432634"><ele>205.0</ele><time>2026-04-28T17:33:03.14Z</time></trkpt><trkpt lat="43.1083259" lon="12.4433751"><ele>205.0</ele><time>2026-04-28T17:33:05.184Z</time></trkpt><trkpt lat="43.1082446" lon="12.4434893"><ele>205.0</ele><time>2026-04-28T17:33:07.188Z</time></trkpt><trkpt lat="43.1081658" lon="12.4436032"><ele>205.0</ele><time>2026-04-28T17:33:09.173Z</time></trkpt><trkpt lat="43.1080807" lon="12.4437201"><ele>205.0</ele><time>2026-04-28T17:33:11.199Z</time></trkpt><trkpt lat="43.1080038" lon="12.4438326"><ele>205.4</ele><time>2026-04-28T17:33:13.176Z</time></trkpt><trkpt lat="43.1079228" lon="12.4439446"><ele>205.8</ele><time>2026-04-28T17:33:15.208Z</time></trkpt><trkpt lat="43.1078532" lon="12.4440535"><ele>206.2</ele><time>2026-04-28T17:33:17.161Z</time></trkpt><trkpt lat="43.1077887" lon="12.4441543"><ele>206.6</ele><time>2026-04-28T17:33:19.167Z</time></trkpt><trkpt lat="43.1077213" lon="12.444239"><ele>207.0</ele><time>2026-04-28T17:33:21.163Z</time></trkpt><trkpt lat="43.1076605" lon="12.4442958"><ele>207.00000000000003</ele><time>2026-04-28T17:33:23.165Z</time></trkpt><trkpt lat="43.1076068" lon="12.4442277"><ele>207.0</ele><time>2026-04-28T17:33:26.197Z</time></trkpt><trkpt lat="43.1075954" lon="12.4441386"><ele>207.0</ele><time>2026-04-28T17:33:29.195Z</time></trkpt><trkpt lat="43.1075765" lon="12.4440457"><ele>207.0</ele><time>2026-04-28T17:33:33.225Z</time></trkpt><trkpt lat="43.107565" lon="12.443955"><ele>207.0</ele><time>2026-04-28T17:33:37.183Z</time></trkpt><trkpt lat="43.107533" lon="12.4438723"><ele>207.00000000000003</ele><time>2026-04-28T17:33:41.158Z</time></trkpt><trkpt lat="43.1075115" lon="12.4437797"><ele>207.0</ele><time>2026-04-28T17:33:45.187Z</time></trkpt><trkpt lat="43.107507" lon="12.4436778"><ele>208.71428571428572</ele><time>2026-04-28T17:33:50.208Z</time></trkpt><trkpt lat="43.1075308" lon="12.4435808"><ele>210.42857142857144</ele><time>2026-04-28T17:33:54.175Z</time></trkpt><trkpt lat="43.1075351" lon="12.4434847"><ele>212.14285714285717</ele><time>2026-04-28T17:33:58.171Z</time></trkpt><trkpt lat="43.1075283" lon="12.4433832"><ele>213.85714285714286</ele><time>2026-04-28T17:34:04.209Z</time></trkpt><trkpt lat="43.1075242" lon="12.443282"><ele>215.57142857142856</ele><time>2026-04-28T17:34:10.25Z</time></trkpt><trkpt lat="43.1075379" lon="12.4431773"><ele>217.2857142857143</ele><time>2026-04-28T17:34:16.2Z</time></trkpt><trkpt lat="43.1075559" lon="12.4430907"><ele>219.0</ele><time>2026-04-28T17:34:21.168Z</time></trkpt><trkpt lat="43.107586" lon="12.4430075"><ele>221.14285714285717</ele><time>2026-04-28T17:34:26.198Z</time></trkpt><trkpt lat="43.1076191" lon="12.4429201"><ele>223.28571428571428</ele><time>2026-04-28T17:34:32.176Z</time></trkpt><trkpt lat="43.1076624" lon="12.4428529"><ele>225.42857142857144</ele><time>2026-04-28T17:34:37.186Z</time></trkpt><trkpt lat="43.1077056" lon="12.442784"><ele>227.57142857142858</ele><time>2026-04-28T17:34:42.222Z</time></trkpt><trkpt lat="43.1077578" lon="12.4427123"><ele>229.71428571428572</ele><time>2026-04-28T17:34:48.204Z</time></trkpt><trkpt lat="43.1077966" lon="12.4426379"><ele>231.85714285714286</ele><time>2026-04-28T17:34:53.194Z</time></trkpt><trkpt lat="43.1078466" lon="12.442584"><ele>234.0</ele><time>2026-04-28T17:34:58.178Z</time></trkpt><trkpt lat="43.1079002" lon="12.4425221"><ele>234.0</ele><time>2026-04-28T17:35:04.226Z</time></trkpt><trkpt lat="43.1079464" lon="12.4424588"><ele>234.00000000000003</ele><time>2026-04-28T17:35:09.219Z</time></trkpt><trkpt lat="43.1079865" lon="12.4423868"><ele>234.0</ele><time>2026-04-28T17:35:14.207Z</time></trkpt><trkpt lat="43.1080466" lon="12.442339"><ele>234.0</ele><time>2026-04-28T17:35:19.317Z</time></trkpt><trkpt lat="43.1080986" lon="12.4422872"><ele>234.00000000000003</ele><time>2026-04-28T17:35:24.178Z</time></trkpt><trkpt lat="43.1081479" lon="12.4422298"><ele>234.0</ele><time>2026-04-28T17:35:29.17Z</time></trkpt><trkpt lat="43.1081821" lon="12.4421375"><ele>234.0</ele><time>2026-04-28T17:35:34.217Z</time></trkpt><trkpt lat="43.1082466" lon="12.4420824"><ele>243.0</ele><time>2026-04-28T17:35:39.188Z</time></trkpt><trkpt lat="43.1082907" lon="12.4420195"><ele>243.0</ele><time>2026-04-28T17:35:44.194Z</time></trkpt><trkpt lat="43.1083489" lon="12.4419544"><ele>243.0</ele><time>2026-04-28T17:35:50.196Z</time></trkpt><trkpt lat="43.1084102" lon="12.4419843"><ele>243.0</ele><time>2026-04-28T17:35:57.189Z</time></trkpt><trkpt lat="43.1084558" lon="12.4420519"><ele>243.0</ele><time>2026-04-28T17:36:05.129Z</time></trkpt></trkseg></trk></gpx>